Time,TemperatureF,DewpointF,PressureIn,WindDirection,WindDirectionDegrees,WindSpeedMPH,WindSpeedGustMPH,Humidity,HourlyPrecipIn,Conditions,Clouds,dailyrainin,SoftwareType,DateUTC
2013-09-29 00:00:00,46.1,43.9,29.61,NNW,344,5.0,6.0,92,0.27,,---,0.54,VWS V14.01,2013-09-29 07:00:00,
2013-09-29 00:02:00,46.1,43.9,29.61,NNW,329,4.0,4.0,92,0.22,,---,0.00,VWS V14.01,2013-09-29 07:02:00,
2013-09-29 00:03:00,46.1,43.9,29.62,NNW,329,4.0,4.0,92,0.22,,---,0.00,VWS V14.01,2013-09-29 07:03:00,
2013-09-29 00:04:00,46.0,43.8,29.62,NW,315,6.0,6.0,92,0.22,,---,0.01,VWS V14.01,2013-09-29 07:04:00,
2013-09-29 00:07:00,45.9,43.7,29.62,NW,310,8.0,8.0,92,0.23,,---,0.01,VWS V14.01,2013-09-29 07:07:00,
2013-09-29 00:08:00,45.9,43.7,29.62,NW,326,9.0,9.0,92,0.23,,---,0.01,VWS V14.01,2013-09-29 07:08:00,
2013-09-29 00:09:00,45.9,43.7,29.62,NNW,331,5.0,9.0,92,0.24,,---,0.02,VWS V14.01,2013-09-29 07:09:00,
2013-09-29 00:10:00,45.8,43.6,29.62,NNW,342,5.0,9.0,92,0.24,,---,0.02,VWS V14.01,2013-09-29 07:10:00,
2013-09-29 00:13:00,45.8,43.3,29.62,WNW,301,7.0,9.0,91,0.20,,---,0.02,VWS V14.01,2013-09-29 07:13:00,
2013-09-29 00:14:00,45.8,43.3,29.62,NNW,329,8.0,10.0,91,0.20,,---,0.02,VWS V14.01,2013-09-29 07:14:00,
2013-09-29 00:16:00,45.8,43.0,29.62,NNW,327,9.0,10.0,90,0.21,,---,0.03,VWS V14.01,2013-09-29 07:16:00,
2013-09-29 00:18:00,45.6,42.8,29.63,NW,315,10.0,11.0,90,0.21,,---,0.03,VWS V14.01,2013-09-29 07:18:00,
2013-09-29 00:19:00,45.6,42.8,29.63,West,280,9.0,11.0,90,0.21,,---,0.03,VWS V14.01,2013-09-29 07:19:00,
2013-09-29 00:21:00,45.6,42.3,29.63,NW,307,8.0,18.0,88,0.22,,---,0.04,VWS V14.01,2013-09-29 07:21:00,
2013-09-29 00:22:00,45.5,42.5,29.64,NW,304,8.0,15.0,89,0.16,,---,0.04,VWS V14.01,2013-09-29 07:22:00,
2013-09-29 00:25:00,45.4,42.1,29.64,NNW,336,4.0,15.0,88,0.17,,---,0.05,VWS V14.01,2013-09-29 07:25:00,
2013-09-29 00:28:00,45.1,42.1,29.64,WNW,290,8.0,19.0,89,0.18,,---,0.06,VWS V14.01,2013-09-29 07:28:00,
2013-09-29 00:29:00,45.0,42.0,29.64,WNW,289,19.0,25.0,89,0.18,,---,0.06,VWS V14.01,2013-09-29 07:29:00,
2013-09-29 00:31:00,44.9,41.0,29.64,West,270,17.0,25.0,86,0.18,,---,0.06,VWS V14.01,2013-09-29 07:31:00,
2013-09-29 00:32:00,44.9,40.4,29.64,WNW,285,13.0,25.0,84,0.19,,---,0.07,VWS V14.01,2013-09-29 07:32:00,
2013-09-29 00:34:00,44.7,40.8,29.65,WNW,288,9.0,19.0,86,0.15,,---,0.07,VWS V14.01,2013-09-29 07:34:00,
2013-09-29 00:36:00,44.5,40.6,29.65,WNW,284,9.0,19.0,86,0.15,,---,0.07,VWS V14.01,2013-09-29 07:36:00,
2013-09-29 00:37:00,44.3,40.7,29.65,WNW,294,9.0,19.0,87,0.16,,---,0.08,VWS V14.01,2013-09-29 07:37:00,
2013-09-29 00:40:00,44.1,40.2,29.66,West,275,15.0,19.0,86,0.16,,---,0.08,VWS V14.01,2013-09-29 07:40:00,
2013-09-29 00:41:00,44.1,40.2,29.66,West,281,9.0,19.0,86,0.16,,---,0.08,VWS V14.01,2013-09-29 07:41:00,
2013-09-29 00:42:00,44.0,40.1,29.66,West,267,9.0,11.0,86,0.13,,---,0.08,VWS V14.01,2013-09-29 07:42:00,
2013-09-29 00:46:00,43.7,40.1,29.65,WNW,293,12.0,15.0,87,0.13,,---,0.08,VWS V14.01,2013-09-29 07:46:00,
2013-09-29 00:47:00,43.7,39.8,29.65,West,279,6.0,15.0,86,0.13,,---,0.08,VWS V14.01,2013-09-29 07:47:00,
2013-09-29 00:52:00,43.6,40.0,29.65,WNW,298,11.0,17.0,87,0.14,,---,0.09,VWS V14.01,2013-09-29 07:52:00,
2013-09-29 00:53:00,43.4,39.8,29.66,NW,307,7.0,12.0,87,0.12,,---,0.09,VWS V14.01,2013-09-29 07:53:00,
2013-09-29 00:57:00,43.1,39.8,29.66,WNW,290,10.0,14.0,88,0.12,,---,0.09,VWS V14.01,2013-09-29 07:57:00,
2013-09-29 00:58:00,43.1,39.5,29.66,NW,304,8.0,14.0,87,0.12,,---,0.09,VWS V14.01,2013-09-29 07:58:00,
2013-09-29 00:59:00,43.0,39.7,29.66,WNW,296,8.0,14.0,88,0.12,,---,0.09,VWS V14.01,2013-09-29 07:59:00,
2013-09-29 01:04:00,42.8,39.5,29.67,West,271,11.0,14.0,88,0.10,,---,0.10,VWS V14.01,2013-09-29 08:04:00,
2013-09-29 01:05:00,42.8,39.5,29.68,WNW,282,7.0,14.0,88,0.10,,---,0.10,VWS V14.01,2013-09-29 08:05:00,
2013-09-29 01:09:00,42.6,39.0,29.68,West,267,4.0,16.0,87,0.10,,---,0.10,VWS V14.01,2013-09-29 08:09:00,
2013-09-29 01:10:00,42.6,39.0,29.67,West,268,3.0,16.0,87,0.10,,---,0.10,VWS V14.01,2013-09-29 08:10:00,
2013-09-29 01:11:00,42.5,39.2,29.67,WNW,285,2.0,16.0,88,0.10,,---,0.10,VWS V14.01,2013-09-29 08:11:00,
2013-09-29 01:12:00,42.4,39.1,29.67,West,273,6.0,7.0,88,0.08,,---,0.10,VWS V14.01,2013-09-29 08:12:00,
2013-09-29 01:14:00,42.3,39.3,29.67,NW,305,5.0,7.0,89,0.08,,---,0.10,VWS V14.01,2013-09-29 08:14:00,
2013-09-29 01:15:00,42.3,39.0,29.68,WNW,301,2.0,7.0,88,0.08,,---,0.10,VWS V14.01,2013-09-29 08:15:00,
2013-09-29 01:18:00,42.2,39.2,29.69,West,267,2.0,7.0,89,0.09,,---,0.11,VWS V14.01,2013-09-29 08:18:00,
2013-09-29 01:19:00,42.1,39.1,29.69,SW,217,2.0,7.0,89,0.09,,---,0.11,VWS V14.01,2013-09-29 08:19:00,
2013-09-29 01:20:00,42.1,39.1,29.69,SW,217,2.0,7.0,89,0.09,,---,0.11,VWS V14.01,2013-09-29 08:20:00,
2013-09-29 01:22:00,42.0,39.3,29.68,SW,217,2.0,2.0,90,0.07,,---,0.11,VWS V14.01,2013-09-29 08:22:00,
2013-09-29 01:23:00,42.0,39.3,29.69,SW,217,2.0,2.0,90,0.07,,---,0.11,VWS V14.01,2013-09-29 08:23:00,
2013-09-29 01:24:00,42.0,39.3,29.69,SW,217,3.0,4.0,90,0.07,,---,0.11,VWS V14.01,2013-09-29 08:24:00,
2013-09-29 01:26:00,42.0,39.0,29.69,SW,220,7.0,10.0,89,0.07,,---,0.11,VWS V14.01,2013-09-29 08:26:00,
2013-09-29 01:28:00,42.1,39.4,29.68,SW,219,1.0,10.0,90,0.07,,---,0.11,VWS V14.01,2013-09-29 08:28:00,
2013-09-29 01:29:00,42.1,39.7,29.68,SW,219,2.0,10.0,91,0.07,,---,0.11,VWS V14.01,2013-09-29 08:29:00,
2013-09-29 01:31:00,42.1,39.7,29.68,SSE,168,5.0,10.0,91,0.07,,---,0.11,VWS V14.01,2013-09-29 08:31:00,
2013-09-29 01:33:00,42.1,39.4,29.68,SE,144,3.0,6.0,90,0.04,,---,0.11,VWS V14.01,2013-09-29 08:33:00,
2013-09-29 01:34:00,42.1,39.7,29.68,SE,144,5.0,8.0,91,0.04,,---,0.11,VWS V14.01,2013-09-29 08:34:00,
2013-09-29 01:37:00,42.1,40.0,29.68,ESE,114,7.0,8.0,92,0.04,,---,0.11,VWS V14.01,2013-09-29 08:37:00,
2013-09-29 01:39:00,42.1,40.0,29.67,SSE,148,5.0,9.0,92,0.04,,---,0.11,VWS V14.01,2013-09-29 08:39:00,
2013-09-29 01:41:00,42.1,40.0,29.67,SSE,161,4.0,9.0,92,0.04,,---,0.11,VWS V14.01,2013-09-29 08:41:00,
2013-09-29 01:42:00,42.1,40.0,29.67,SSE,163,6.0,9.0,92,0.04,,---,0.11,VWS V14.01,2013-09-29 08:42:00,
2013-09-29 01:44:00,42.2,39.8,29.69,SSW,206,8.0,10.0,91,0.03,,---,0.11,VWS V14.01,2013-09-29 08:44:00,
2013-09-29 01:45:00,42.2,39.8,29.69,SSW,197,5.0,10.0,91,0.03,,---,0.11,VWS V14.01,2013-09-29 08:45:00,
2013-09-29 01:46:00,42.2,39.8,29.69,SSW,205,4.0,10.0,91,0.03,,---,0.11,VWS V14.01,2013-09-29 08:46:00,
2013-09-29 01:47:00,42.2,39.8,29.69,South,180,4.0,10.0,91,0.03,,---,0.11,VWS V14.01,2013-09-29 08:47:00,
2013-09-29 01:49:00,42.3,39.3,29.69,SSW,207,7.0,11.0,89,0.03,,---,0.11,VWS V14.01,2013-09-29 08:49:00,
2013-09-29 01:51:00,42.4,39.4,29.69,SSW,200,5.0,11.0,89,0.03,,---,0.11,VWS V14.01,2013-09-29 08:51:00,
2013-09-29 01:52:00,42.4,39.4,29.69,South,181,2.0,2.0,89,0.02,,---,0.11,VWS V14.01,2013-09-29 08:52:00,
2013-09-29 01:54:00,42.4,39.7,29.70,South,173,7.0,8.0,90,0.02,,---,0.11,VWS V14.01,2013-09-29 08:54:00,
2013-09-29 01:57:00,42.3,39.6,29.69,SSW,192,5.0,10.0,90,0.02,,---,0.11,VWS V14.01,2013-09-29 08:57:00,
2013-09-29 01:58:00,42.3,39.6,29.69,South,173,3.0,10.0,90,0.02,,---,0.11,VWS V14.01,2013-09-29 08:58:00,
2013-09-29 01:59:00,42.2,39.5,29.69,South,184,4.0,10.0,90,0.02,,---,0.11,VWS V14.01,2013-09-29 08:59:00,
2013-09-29 02:02:00,42.1,39.4,29.69,SSW,207,6.0,6.0,90,0.02,,---,0.11,VWS V14.01,2013-09-29 09:02:00,
2013-09-29 02:03:00,42.1,39.4,29.69,SW,217,5.0,6.0,90,0.02,,---,0.11,VWS V14.01,2013-09-29 09:03:00,
2013-09-29 02:04:00,42.1,39.1,29.69,SW,234,3.0,9.0,89,0.02,,---,0.11,VWS V14.01,2013-09-29 09:04:00,
2013-09-29 02:08:00,42.1,39.1,29.70,WSW,246,3.0,11.0,89,0.02,,---,0.11,VWS V14.01,2013-09-29 09:08:00,
2013-09-29 02:10:00,42.0,38.7,29.70,SW,217,4.0,12.0,88,0.02,,---,0.11,VWS V14.01,2013-09-29 09:10:00,
2013-09-29 02:12:00,42.1,38.8,29.70,SSW,213,5.0,11.0,88,0.01,,---,0.11,VWS V14.01,2013-09-29 09:12:00,
2013-09-29 02:13:00,42.1,38.8,29.71,WSW,241,4.0,11.0,88,0.01,,---,0.11,VWS V14.01,2013-09-29 09:13:00,
2013-09-29 02:17:00,42.1,38.8,29.70,SSW,213,18.0,18.0,88,0.01,,---,0.11,VWS V14.01,2013-09-29 09:17:00,
2013-09-29 02:18:00,42.1,38.8,29.70,SW,232,12.0,18.0,88,0.01,,---,0.11,VWS V14.01,2013-09-29 09:18:00,
2013-09-29 02:19:00,42.1,38.5,29.70,SW,225,11.0,18.0,87,0.01,,---,0.11,VWS V14.01,2013-09-29 09:19:00,
2013-09-29 02:23:00,42.1,38.5,29.69,SSW,209,4.0,13.0,87,0.01,,---,0.12,VWS V14.01,2013-09-29 09:23:00,
2013-09-29 02:24:00,42.0,38.4,29.69,SSW,200,5.0,13.0,87,0.01,,---,0.12,VWS V14.01,2013-09-29 09:24:00,
2013-09-29 02:25:00,42.0,38.7,29.69,SSW,206,9.0,13.0,88,0.01,,---,0.12,VWS V14.01,2013-09-29 09:25:00,
2013-09-29 02:26:00,41.9,38.6,29.69,South,188,7.0,13.0,88,0.01,,---,0.12,VWS V14.01,2013-09-29 09:26:00,
2013-09-29 02:28:00,41.8,38.5,29.70,SW,226,9.0,14.0,88,0.01,,---,0.12,VWS V14.01,2013-09-29 09:28:00,
2013-09-29 02:29:00,41.8,38.5,29.69,SSW,211,6.0,14.0,88,0.01,,---,0.12,VWS V14.01,2013-09-29 09:29:00,
2013-09-29 02:31:00,41.8,38.5,29.69,South,182,5.0,14.0,88,0.01,,---,0.12,VWS V14.01,2013-09-29 09:31:00,
2013-09-29 02:32:00,41.8,38.5,29.69,South,186,6.0,14.0,88,0.01,,---,0.12,VWS V14.01,2013-09-29 09:32:00,
2013-09-29 02:34:00,41.7,38.4,29.69,SSW,209,5.0,10.0,88,0.01,,---,0.12,VWS V14.01,2013-09-29 09:34:00,
2013-09-29 02:35:00,41.7,38.4,29.69,SW,223,7.0,11.0,88,0.01,,---,0.12,VWS V14.01,2013-09-29 09:35:00,
2013-09-29 02:37:00,41.6,38.3,29.68,SSW,212,7.0,16.0,88,0.01,,---,0.12,VWS V14.01,2013-09-29 09:37:00,
2013-09-29 02:39:00,41.6,38.0,29.68,SW,214,7.0,16.0,87,0.01,,---,0.12,VWS V14.01,2013-09-29 09:39:00,
2013-09-29 02:40:00,41.6,38.3,29.68,SSW,211,5.0,16.0,88,0.01,,---,0.12,VWS V14.01,2013-09-29 09:40:00,
2013-09-29 02:43:00,41.5,38.2,29.69,SSW,206,8.0,9.0,88,0.01,,---,0.12,VWS V14.01,2013-09-29 09:43:00,
2013-09-29 02:45:00,41.5,38.5,29.69,SW,222,2.0,9.0,89,0.01,,---,0.12,VWS V14.01,2013-09-29 09:45:00,
2013-09-29 02:49:00,41.4,38.7,29.69,South,183,7.0,11.0,90,0.01,,---,0.12,VWS V14.01,2013-09-29 09:49:00,
2013-09-29 02:50:00,41.4,38.7,29.70,SSW,192,7.0,11.0,90,0.01,,---,0.12,VWS V14.01,2013-09-29 09:50:00,
2013-09-29 02:52:00,41.4,38.4,29.70,SW,221,9.0,13.0,89,0.01,,---,0.12,VWS V14.01,2013-09-29 09:52:00,
2013-09-29 02:54:00,41.5,38.5,29.70,SW,217,10.0,14.0,89,0.01,,---,0.12,VWS V14.01,2013-09-29 09:54:00,
2013-09-29 02:55:00,41.4,38.4,29.70,SW,215,7.0,14.0,89,0.01,,---,0.12,VWS V14.01,2013-09-29 09:55:00,
2013-09-29 02:57:00,41.5,38.5,29.70,South,190,12.0,17.0,89,0.01,,---,0.12,VWS V14.01,2013-09-29 09:57:00,
2013-09-29 02:59:00,41.5,38.2,29.71,SW,215,11.0,17.0,88,0.01,,---,0.12,VWS V14.01,2013-09-29 09:59:00,
2013-09-29 03:01:00,41.5,38.5,29.71,SSW,201,9.0,17.0,89,0.01,,---,0.12,VWS V14.01,2013-09-29 10:01:00,
2013-09-29 03:02:00,41.5,38.5,29.71,West,276,9.0,17.0,89,0.01,,---,0.12,VWS V14.01,2013-09-29 10:02:00,
2013-09-29 03:04:00,41.6,38.3,29.71,SSW,203,6.0,18.0,88,0.01,,---,0.12,VWS V14.01,2013-09-29 10:04:00,
2013-09-29 03:05:00,41.6,38.6,29.71,SW,226,13.0,18.0,89,0.01,,---,0.12,VWS V14.01,2013-09-29 10:05:00,
2013-09-29 03:06:00,41.6,38.6,29.71,SW,223,6.0,18.0,89,0.01,,---,0.12,VWS V14.01,2013-09-29 10:06:00,
2013-09-29 03:09:00,41.6,38.6,29.71,SSW,206,8.0,18.0,89,0.01,,---,0.12,VWS V14.01,2013-09-29 10:09:00,
2013-09-29 03:10:00,41.6,38.6,29.71,SW,219,11.0,18.0,89,0.01,,---,0.12,VWS V14.01,2013-09-29 10:10:00,
2013-09-29 03:12:00,41.5,38.5,29.70,SSW,203,11.0,18.0,89,0.01,,---,0.12,VWS V14.01,2013-09-29 10:12:00,
2013-09-29 03:15:00,41.4,38.4,29.70,SW,225,4.0,16.0,89,0.01,,---,0.12,VWS V14.01,2013-09-29 10:15:00,
2013-09-29 03:16:00,41.4,38.4,29.70,SSW,202,8.0,16.0,89,0.01,,---,0.12,VWS V14.01,2013-09-29 10:16:00,
2013-09-29 03:17:00,41.3,38.6,29.70,South,183,8.0,16.0,90,0.01,,---,0.12,VWS V14.01,2013-09-29 10:17:00,
2013-09-29 03:21:00,41.2,38.5,29.71,SSW,207,12.0,16.0,90,0.01,,---,0.12,VWS V14.01,2013-09-29 10:21:00,
2013-09-29 03:22:00,41.1,38.4,29.71,SSW,210,11.0,16.0,90,0.01,,---,0.12,VWS V14.01,2013-09-29 10:22:00,
2013-09-29 03:23:00,41.1,38.4,29.70,SW,227,12.0,16.0,90,0.00,,---,0.12,VWS V14.01,2013-09-29 10:23:00,
2013-09-29 03:26:00,41.0,38.3,29.71,SW,214,4.0,16.0,90,0.00,,---,0.12,VWS V14.01,2013-09-29 10:26:00,
2013-09-29 03:28:00,41.0,38.6,29.71,SSW,194,6.0,16.0,91,0.00,,---,0.12,VWS V14.01,2013-09-29 10:28:00,
2013-09-29 03:31:00,41.0,38.3,29.70,SSW,198,19.0,20.0,90,0.00,,---,0.12,VWS V14.01,2013-09-29 10:31:00,
2013-09-29 03:33:00,41.0,38.3,29.69,South,189,13.0,17.0,90,0.01,,---,0.13,VWS V14.01,2013-09-29 10:33:00,
2013-09-29 03:36:00,41.0,38.6,29.69,South,183,11.0,17.0,91,0.01,,---,0.13,VWS V14.01,2013-09-29 10:36:00,
2013-09-29 03:37:00,41.0,38.3,29.69,SSW,192,11.0,17.0,90,0.01,,---,0.13,VWS V14.01,2013-09-29 10:37:00,
2013-09-29 03:39:00,41.0,38.6,29.69,SSW,195,11.0,17.0,91,0.01,,---,0.13,VWS V14.01,2013-09-29 10:39:00,
2013-09-29 03:40:00,41.0,38.6,29.69,SSW,194,7.0,20.0,91,0.01,,---,0.13,VWS V14.01,2013-09-29 10:40:00,
2013-09-29 03:42:00,41.0,38.3,29.69,South,191,9.0,20.0,90,0.01,,---,0.13,VWS V14.01,2013-09-29 10:42:00,
2013-09-29 03:43:00,41.0,38.3,29.69,South,179,9.0,17.0,90,0.01,,---,0.13,VWS V14.01,2013-09-29 10:43:00,
2013-09-29 03:44:00,41.0,38.3,29.69,WSW,245,7.0,17.0,90,0.01,,---,0.13,VWS V14.01,2013-09-29 10:44:00,
2013-09-29 03:45:00,41.0,38.3,29.69,South,190,7.0,17.0,90,0.01,,---,0.13,VWS V14.01,2013-09-29 10:45:00,
2013-09-29 03:47:00,41.0,38.3,29.69,SSE,150,4.0,17.0,90,0.01,,---,0.13,VWS V14.01,2013-09-29 10:47:00,
2013-09-29 03:49:00,41.0,38.3,29.68,South,186,10.0,20.0,90,0.01,,---,0.13,VWS V14.01,2013-09-29 10:49:00,
2013-09-29 03:52:00,41.0,38.3,29.69,SSW,193,6.0,11.0,90,0.01,,---,0.13,VWS V14.01,2013-09-29 10:52:00,
2013-09-29 03:53:00,41.0,38.6,29.69,South,191,2.0,11.0,91,0.01,,---,0.13,VWS V14.01,2013-09-29 10:53:00,
2013-09-29 03:54:00,41.0,38.6,29.69,SW,214,6.0,11.0,91,0.01,,---,0.13,VWS V14.01,2013-09-29 10:54:00,
2013-09-29 03:55:00,41.0,38.6,29.69,West,259,8.0,11.0,91,0.01,,---,0.13,VWS V14.01,2013-09-29 10:55:00,
2013-09-29 03:57:00,41.0,38.3,29.69,SSW,205,10.0,19.0,90,0.01,,---,0.13,VWS V14.01,2013-09-29 10:57:00,
2013-09-29 03:58:00,41.1,38.4,29.69,South,182,9.0,19.0,90,0.01,,---,0.13,VWS V14.01,2013-09-29 10:58:00,
2013-09-29 04:00:00,41.1,38.4,29.69,South,190,11.0,19.0,90,0.01,,---,0.13,VWS V14.01,2013-09-29 11:00:00,
2013-09-29 04:01:00,41.1,38.4,29.69,South,189,9.0,19.0,90,0.01,,---,0.13,VWS V14.01,2013-09-29 11:01:00,
2013-09-29 04:04:00,41.2,38.2,29.69,SSE,165,10.0,18.0,89,0.01,,---,0.13,VWS V14.01,2013-09-29 11:04:00,
2013-09-29 04:05:00,41.2,38.2,29.69,SSE,168,18.0,19.0,89,0.01,,---,0.13,VWS V14.01,2013-09-29 11:05:00,
2013-09-29 04:06:00,41.2,38.2,29.68,South,175,6.0,19.0,89,0.01,,---,0.13,VWS V14.01,2013-09-29 11:06:00,
2013-09-29 04:08:00,41.1,38.4,29.68,SSE,153,7.0,19.0,90,0.01,,---,0.13,VWS V14.01,2013-09-29 11:08:00,
2013-09-29 04:09:00,41.1,38.4,29.68,South,175,6.0,19.0,90,0.01,,---,0.13,VWS V14.01,2013-09-29 11:09:00,
2013-09-29 04:10:00,41.1,38.4,29.68,SSW,195,9.0,19.0,90,0.01,,---,0.13,VWS V14.01,2013-09-29 11:10:00,
2013-09-29 04:12:00,41.0,38.3,29.68,SE,142,3.0,3.0,90,0.01,,---,0.13,VWS V14.01,2013-09-29 11:12:00,
2013-09-29 04:14:00,41.0,38.3,29.68,ESE,110,8.0,8.0,90,0.01,,---,0.13,VWS V14.01,2013-09-29 11:14:00,
2013-09-29 04:15:00,41.0,38.3,29.68,ESE,119,8.0,10.0,90,0.01,,---,0.13,VWS V14.01,2013-09-29 11:15:00,
2013-09-29 04:16:00,41.0,38.3,29.68,East,92,7.0,10.0,90,0.01,,---,0.13,VWS V14.01,2013-09-29 11:16:00,
2013-09-29 04:18:00,40.9,38.2,29.68,ESE,121,5.0,10.0,90,0.01,,---,0.13,VWS V14.01,2013-09-29 11:18:00,
2013-09-29 04:20:00,40.9,38.2,29.68,ESE,103,8.0,10.0,90,0.01,,---,0.13,VWS V14.01,2013-09-29 11:20:00,
2013-09-29 04:21:00,40.9,38.2,29.68,ESE,106,7.0,10.0,90,0.01,,---,0.13,VWS V14.01,2013-09-29 11:21:00,
2013-09-29 04:23:00,40.8,38.1,29.68,SE,128,7.0,10.0,90,0.01,,---,0.13,VWS V14.01,2013-09-29 11:23:00,
2013-09-29 04:25:00,40.8,38.1,29.68,ESE,103,7.0,10.0,90,0.01,,---,0.13,VWS V14.01,2013-09-29 11:25:00,
2013-09-29 04:27:00,40.8,38.1,29.68,SE,134,9.0,10.0,90,0.01,,---,0.13,VWS V14.01,2013-09-29 11:27:00,
2013-09-29 04:29:00,40.8,38.1,29.68,SE,128,4.0,10.0,90,0.01,,---,0.13,VWS V14.01,2013-09-29 11:29:00,
2013-09-29 04:31:00,40.8,38.1,29.67,East,101,10.0,10.0,90,0.01,,---,0.13,VWS V14.01,2013-09-29 11:31:00,
2013-09-29 04:32:00,40.8,38.1,29.67,South,178,14.0,14.0,90,0.01,,---,0.13,VWS V14.01,2013-09-29 11:32:00,
2013-09-29 04:33:00,40.8,38.1,29.67,SSE,154,11.0,16.0,90,0.01,,---,0.13,VWS V14.01,2013-09-29 11:33:00,
2013-09-29 04:36:00,40.9,38.2,29.67,ESE,121,11.0,16.0,90,0.01,,---,0.13,VWS V14.01,2013-09-29 11:36:00,
2013-09-29 04:37:00,41.0,38.3,29.67,SSW,210,5.0,16.0,90,0.01,,---,0.13,VWS V14.01,2013-09-29 11:37:00,
2013-09-29 04:38:00,41.1,38.4,29.68,East,94,6.0,16.0,90,0.01,,---,0.13,VWS V14.01,2013-09-29 11:38:00,
2013-09-29 04:39:00,41.1,38.4,29.68,ESE,117,8.0,16.0,90,0.01,,---,0.13,VWS V14.01,2013-09-29 11:39:00,
2013-09-29 04:42:00,41.2,38.2,29.67,ENE,78,2.0,16.0,89,0.01,,---,0.13,VWS V14.01,2013-09-29 11:42:00,
2013-09-29 04:44:00,41.2,38.2,29.67,East,89,3.0,4.0,89,0.00,,---,0.13,VWS V14.01,2013-09-29 11:44:00,
2013-09-29 04:47:00,41.4,38.4,29.67,SE,134,8.0,9.0,89,0.00,,---,0.13,VWS V14.01,2013-09-29 11:47:00,
2013-09-29 04:49:00,41.5,38.2,29.67,SE,129,15.0,16.0,88,0.00,,---,0.13,VWS V14.01,2013-09-29 11:49:00,
2013-09-29 04:51:00,41.8,38.5,29.67,ESE,123,9.0,16.0,88,0.00,,---,0.13,VWS V14.01,2013-09-29 11:51:00,
2013-09-29 04:54:00,41.8,38.5,29.66,East,98,8.0,10.0,88,0.00,,---,0.13,VWS V14.01,2013-09-29 11:54:00,
2013-09-29 04:55:00,41.8,38.5,29.66,SE,126,8.0,14.0,88,0.00,,---,0.13,VWS V14.01,2013-09-29 11:55:00,
2013-09-29 04:58:00,41.9,38.6,29.66,ESE,115,12.0,19.0,88,0.00,,---,0.13,VWS V14.01,2013-09-29 11:58:00,
2013-09-29 05:00:00,41.9,38.3,29.67,ESE,123,9.0,19.0,87,0.00,,---,0.13,VWS V14.01,2013-09-29 12:00:00,
2013-09-29 05:02:00,41.9,38.6,29.67,SE,136,11.0,19.0,88,0.00,,---,0.13,VWS V14.01,2013-09-29 12:02:00,
2013-09-29 05:03:00,42.0,38.4,29.67,ESE,108,10.0,13.0,87,0.00,,---,0.13,VWS V14.01,2013-09-29 12:03:00,
2013-09-29 05:05:00,42.1,38.5,29.68,ESE,117,7.0,16.0,87,0.00,,---,0.13,VWS V14.01,2013-09-29 12:05:00,
2013-09-29 05:07:00,42.1,38.5,29.68,SE,140,11.0,16.0,87,0.00,,---,0.13,VWS V14.01,2013-09-29 12:07:00,
2013-09-29 05:09:00,42.2,38.6,29.69,SE,138,4.0,16.0,87,0.00,,---,0.13,VWS V14.01,2013-09-29 12:09:00,
2013-09-29 05:12:00,42.3,38.4,29.69,ESE,103,7.0,11.0,86,0.00,,---,0.13,VWS V14.01,2013-09-29 12:12:00,
2013-09-29 05:13:00,42.4,38.5,29.69,ESE,121,8.0,11.0,86,0.00,,---,0.13,VWS V14.01,2013-09-29 12:13:00,
2013-09-29 05:14:00,42.4,38.5,29.69,SE,131,16.0,16.0,86,0.00,,---,0.13,VWS V14.01,2013-09-29 12:14:00,
2013-09-29 05:16:00,42.5,38.6,29.69,ESE,114,9.0,17.0,86,0.00,,---,0.13,VWS V14.01,2013-09-29 12:16:00,
2013-09-29 05:19:00,42.5,38.9,29.69,SE,130,10.0,17.0,87,0.00,,---,0.13,VWS V14.01,2013-09-29 12:19:00,
2013-09-29 05:20:00,42.5,38.6,29.69,SE,130,12.0,17.0,86,0.00,,---,0.13,VWS V14.01,2013-09-29 12:20:00,
2013-09-29 05:21:00,42.5,38.6,29.69,ESE,118,13.0,17.0,86,0.00,,---,0.13,VWS V14.01,2013-09-29 12:21:00,
2013-09-29 05:24:00,42.6,38.7,29.69,ESE,111,15.0,15.0,86,0.00,,---,0.13,VWS V14.01,2013-09-29 12:24:00,
2013-09-29 05:26:00,42.7,38.5,29.69,SE,134,10.0,17.0,85,0.00,,---,0.13,VWS V14.01,2013-09-29 12:26:00,
2013-09-29 05:27:00,42.8,38.6,29.69,SE,133,8.0,17.0,85,0.00,,---,0.13,VWS V14.01,2013-09-29 12:27:00,
2013-09-29 05:30:00,42.8,38.6,29.69,SE,134,11.0,17.0,85,0.00,,---,0.13,VWS V14.01,2013-09-29 12:30:00,
2013-09-29 05:31:00,42.9,38.7,29.69,SE,141,17.0,21.0,85,0.00,,---,0.13,VWS V14.01,2013-09-29 12:31:00,
2013-09-29 05:32:00,42.9,38.7,29.69,SE,140,11.0,15.0,85,0.00,,---,0.13,VWS V14.01,2013-09-29 12:32:00,
2013-09-29 05:36:00,43.0,38.5,29.68,SSE,149,13.0,21.0,84,0.00,,---,0.13,VWS V14.01,2013-09-29 12:36:00,
2013-09-29 05:37:00,43.0,38.8,29.69,SE,146,9.0,21.0,85,0.00,,---,0.13,VWS V14.01,2013-09-29 12:37:00,
2013-09-29 05:38:00,43.0,38.8,29.68,SE,146,11.0,21.0,85,0.00,,---,0.13,VWS V14.01,2013-09-29 12:38:00,
2013-09-29 05:42:00,43.1,38.9,29.68,SE,138,11.0,14.0,85,0.00,,---,0.13,VWS V14.01,2013-09-29 12:42:00,
2013-09-29 05:43:00,43.1,38.9,29.68,ESE,111,15.0,16.0,85,0.00,,---,0.13,VWS V14.01,2013-09-29 12:43:00,
2013-09-29 05:45:00,43.1,38.9,29.68,SE,145,10.0,16.0,85,0.00,,---,0.13,VWS V14.01,2013-09-29 12:45:00,
2013-09-29 05:49:00,43.1,38.9,29.68,SSE,161,12.0,19.0,85,0.00,,---,0.13,VWS V14.01,2013-09-29 12:49:00,
2013-09-29 05:51:00,43.1,38.9,29.68,SE,139,13.0,19.0,85,0.00,,---,0.13,VWS V14.01,2013-09-29 12:51:00,
2013-09-29 05:53:00,43.1,38.9,29.68,SSE,148,12.0,17.0,85,0.00,,---,0.13,VWS V14.01,2013-09-29 12:53:00,
2013-09-29 05:54:00,43.2,39.0,29.68,SE,137,12.0,17.0,85,0.00,,---,0.13,VWS V14.01,2013-09-29 12:54:00,
2013-09-29 05:57:00,43.2,39.0,29.68,SE,134,14.0,17.0,85,0.00,,---,0.13,VWS V14.01,2013-09-29 12:57:00,
2013-09-29 05:58:00,43.2,39.0,29.68,SE,127,11.0,17.0,85,0.00,,---,0.13,VWS V14.01,2013-09-29 12:58:00,
2013-09-29 06:00:00,43.3,38.8,29.70,SSE,153,5.0,17.0,84,0.00,,---,0.13,VWS V14.01,2013-09-29 13:00:00,
2013-09-29 06:04:00,43.3,39.1,29.70,SE,129,7.0,15.0,85,0.00,,---,0.13,VWS V14.01,2013-09-29 13:04:00,
2013-09-29 06:06:00,43.3,38.8,29.70,SE,127,7.0,15.0,84,0.00,,---,0.13,VWS V14.01,2013-09-29 13:06:00,
2013-09-29 06:08:00,43.4,38.9,29.70,SE,140,10.0,15.0,84,0.00,,---,0.13,VWS V14.01,2013-09-29 13:08:00,
2013-09-29 06:10:00,43.4,38.9,29.70,SE,146,10.0,15.0,84,0.00,,---,0.13,VWS V14.01,2013-09-29 13:10:00,
2013-09-29 06:11:00,43.4,38.9,29.70,SE,129,11.0,16.0,84,0.00,,---,0.13,VWS V14.01,2013-09-29 13:11:00,
2013-09-29 06:12:00,43.5,39.0,29.70,SSE,156,10.0,13.0,84,0.00,,---,0.13,VWS V14.01,2013-09-29 13:12:00,
2013-09-29 06:15:00,43.7,38.9,29.70,ESE,123,11.0,18.0,83,0.00,,---,0.13,VWS V14.01,2013-09-29 13:15:00,
2013-09-29 06:16:00,43.7,38.9,29.70,ESE,107,10.0,18.0,83,0.00,,---,0.13,VWS V14.01,2013-09-29 13:16:00,
2013-09-29 06:18:00,43.7,38.9,29.69,SSE,160,9.0,18.0,83,0.00,,---,0.13,VWS V14.01,2013-09-29 13:18:00,
2013-09-29 06:19:00,43.7,39.2,29.69,SE,128,12.0,18.0,84,0.00,,---,0.13,VWS V14.01,2013-09-29 13:19:00,
2013-09-29 06:21:00,43.6,39.1,29.69,SE,136,9.0,18.0,84,0.00,,---,0.13,VWS V14.01,2013-09-29 13:21:00,
2013-09-29 06:22:00,43.6,39.1,29.69,SSE,159,14.0,14.0,84,0.00,,---,0.13,VWS V14.01,2013-09-29 13:22:00,
2013-09-29 06:24:00,43.5,39.0,29.68,SE,144,10.0,17.0,84,0.00,,---,0.13,VWS V14.01,2013-09-29 13:24:00,
2013-09-29 06:25:00,43.5,39.0,29.68,South,181,12.0,17.0,84,0.00,,---,0.13,VWS V14.01,2013-09-29 13:25:00,
2013-09-29 06:27:00,43.4,38.9,29.69,SE,139,13.0,17.0,84,0.00,,---,0.13,VWS V14.01,2013-09-29 13:27:00,
2013-09-29 06:30:00,43.4,39.2,29.69,SE,130,14.0,17.0,85,0.00,,---,0.13,VWS V14.01,2013-09-29 13:30:00,
2013-09-29 06:33:00,43.4,38.9,29.69,SSE,165,9.0,18.0,84,0.00,,---,0.13,VWS V14.01,2013-09-29 13:33:00,
2013-09-29 06:35:00,43.5,39.0,29.69,SSE,158,9.0,18.0,84,0.00,,---,0.13,VWS V14.01,2013-09-29 13:35:00,
2013-09-29 06:36:00,43.5,39.3,29.69,SE,136,10.0,18.0,85,0.00,,---,0.13,VWS V14.01,2013-09-29 13:36:00,
2013-09-29 06:37:00,43.5,39.0,29.69,SSE,156,10.0,18.0,84,0.00,,---,0.13,VWS V14.01,2013-09-29 13:37:00,
2013-09-29 06:39:00,43.6,39.1,29.70,SSE,148,11.0,18.0,84,0.00,,---,0.13,VWS V14.01,2013-09-29 13:39:00,
2013-09-29 06:41:00,43.6,39.1,29.70,SSE,155,13.0,18.0,84,0.00,,---,0.13,VWS V14.01,2013-09-29 13:41:00,
2013-09-29 06:42:00,43.6,39.1,29.69,SSE,157,11.0,18.0,84,0.00,,---,0.13,VWS V14.01,2013-09-29 13:42:00,
2013-09-29 06:45:00,43.7,39.2,29.69,SSW,198,5.0,14.0,84,0.00,,---,0.13,VWS V14.01,2013-09-29 13:45:00,
2013-09-29 06:48:00,43.7,39.2,29.69,SSE,156,8.0,14.0,84,0.00,,---,0.13,VWS V14.01,2013-09-29 13:48:00,
2013-09-29 06:49:00,43.6,39.1,29.69,SSE,168,12.0,14.0,84,0.00,,---,0.13,VWS V14.01,2013-09-29 13:49:00,
2013-09-29 06:51:00,43.6,39.1,29.68,SE,139,14.0,16.0,84,0.00,,---,0.13,VWS V14.01,2013-09-29 13:51:00,
2013-09-29 06:55:00,43.6,39.1,29.69,SE,140,10.0,13.0,84,0.00,,---,0.13,VWS V14.01,2013-09-29 13:55:00,
2013-09-29 06:56:00,43.6,39.1,29.68,ESE,112,10.0,14.0,84,0.00,,---,0.13,VWS V14.01,2013-09-29 13:56:00,
2013-09-29 07:00:00,43.4,39.2,29.68,ESE,105,12.0,17.0,85,0.00,,---,0.13,VWS V14.01,2013-09-29 14:00:00,
2013-09-29 07:01:00,43.3,39.1,29.67,East,94,8.0,17.0,85,0.00,,---,0.13,VWS V14.01,2013-09-29 14:01:00,
2013-09-29 07:05:00,43.3,39.1,29.67,ESE,119,10.0,15.0,85,0.00,,---,0.13,VWS V14.01,2013-09-29 14:05:00,
2013-09-29 07:06:00,43.3,39.1,29.67,SE,126,13.0,16.0,85,0.00,,---,0.13,VWS V14.01,2013-09-29 14:06:00,
2013-09-29 07:11:00,43.4,38.9,29.68,SE,127,10.0,18.0,84,0.00,,---,0.13,VWS V14.01,2013-09-29 14:11:00,
2013-09-29 07:12:00,43.4,39.2,29.68,ESE,106,11.0,18.0,85,0.00,,---,0.13,VWS V14.01,2013-09-29 14:12:00,
2013-09-29 07:16:00,43.6,39.1,29.68,SE,134,11.0,15.0,84,0.00,,---,0.13,VWS V14.01,2013-09-29 14:16:00,
2013-09-29 07:17:00,43.6,39.1,29.68,ESE,109,13.0,15.0,84,0.00,,---,0.13,VWS V14.01,2013-09-29 14:17:00,
2013-09-29 07:21:00,43.7,38.9,29.67,East,96,11.0,16.0,83,0.00,,---,0.13,VWS V14.01,2013-09-29 14:21:00,
2013-09-29 07:22:00,43.7,38.9,29.67,ESE,108,10.0,16.0,83,0.00,,---,0.13,VWS V14.01,2013-09-29 14:22:00,
2013-09-29 07:25:00,43.7,39.2,29.68,SE,142,4.0,10.0,84,0.00,,---,0.13,VWS V14.01,2013-09-29 14:25:00,
2013-09-29 07:27:00,43.7,39.2,29.68,SE,127,9.0,14.0,84,0.00,,---,0.13,VWS V14.01,2013-09-29 14:27:00,
2013-09-29 07:28:00,43.7,39.2,29.68,ESE,113,12.0,14.0,84,0.00,,---,0.13,VWS V14.01,2013-09-29 14:28:00,
2013-09-29 07:30:00,43.7,38.9,29.67,SE,128,8.0,14.0,83,0.00,,---,0.13,VWS V14.01,2013-09-29 14:30:00,
2013-09-29 07:31:00,43.7,38.9,29.67,East,101,9.0,14.0,83,0.00,,---,0.13,VWS V14.01,2013-09-29 14:31:00,
2013-09-29 07:33:00,43.8,39.0,29.67,ESE,106,9.0,13.0,83,0.00,,---,0.13,VWS V14.01,2013-09-29 14:33:00,
2013-09-29 07:34:00,43.8,39.0,29.67,ESE,107,10.0,13.0,83,0.00,,---,0.13,VWS V14.01,2013-09-29 14:34:00,
2013-09-29 07:35:00,43.9,38.8,29.67,ESE,106,12.0,13.0,82,0.00,,---,0.13,VWS V14.01,2013-09-29 14:35:00,
2013-09-29 07:37:00,44.0,38.9,29.66,East,100,9.0,13.0,82,0.00,,---,0.13,VWS V14.01,2013-09-29 14:37:00,
2013-09-29 07:38:00,44.1,39.0,29.66,East,92,7.0,13.0,82,0.00,,---,0.13,VWS V14.01,2013-09-29 14:38:00,
2013-09-29 07:40:00,44.2,38.4,29.66,East,94,9.0,13.0,80,0.00,,---,0.13,VWS V14.01,2013-09-29 14:40:00,
2013-09-29 07:41:00,44.3,38.8,29.66,SE,126,11.0,13.0,81,0.00,,---,0.13,VWS V14.01,2013-09-29 14:41:00,
2013-09-29 07:43:00,44.4,38.6,29.66,SSE,156,9.0,11.0,80,0.00,,---,0.13,VWS V14.01,2013-09-29 14:43:00,
2013-09-29 07:44:00,44.4,38.6,29.67,SE,132,10.0,11.0,80,0.00,,---,0.13,VWS V14.01,2013-09-29 14:44:00,
2013-09-29 07:46:00,44.4,38.9,29.67,ESE,105,9.0,11.0,81,0.00,,---,0.13,VWS V14.01,2013-09-29 14:46:00,
2013-09-29 07:47:00,44.3,38.8,29.67,ESE,107,13.0,14.0,81,0.00,,---,0.13,VWS V14.01,2013-09-29 14:47:00,
2013-09-29 07:50:00,44.3,38.8,29.67,ESE,114,12.0,19.0,81,0.00,,---,0.13,VWS V14.01,2013-09-29 14:50:00,
2013-09-29 07:51:00,44.2,38.8,29.67,SE,136,15.0,19.0,81,0.00,,---,0.13,VWS V14.01,2013-09-29 14:51:00,
2013-09-29 07:52:00,44.2,38.8,29.67,SE,137,12.0,16.0,81,0.00,,---,0.13,VWS V14.01,2013-09-29 14:52:00,
2013-09-29 07:55:00,44.2,39.1,29.67,ESE,118,10.0,17.0,82,0.00,,---,0.13,VWS V14.01,2013-09-29 14:55:00,
2013-09-29 07:56:00,44.2,39.1,29.67,SSE,148,11.0,17.0,82,0.00,,---,0.13,VWS V14.01,2013-09-29 14:56:00,
2013-09-29 07:57:00,44.1,39.0,29.67,ESE,114,12.0,17.0,82,0.00,,---,0.13,VWS V14.01,2013-09-29 14:57:00,
2013-09-29 07:58:00,44.1,39.0,29.66,SSE,153,13.0,17.0,82,0.00,,---,0.13,VWS V14.01,2013-09-29 14:58:00,
2013-09-29 08:01:00,44.1,39.0,29.66,ESE,120,14.0,17.0,82,0.00,,---,0.13,VWS V14.01,2013-09-29 15:01:00,
2013-09-29 08:02:00,44.1,39.0,29.66,SE,134,12.0,17.0,82,0.00,,---,0.13,VWS V14.01,2013-09-29 15:02:00,
2013-09-29 08:03:00,44.2,39.1,29.66,SSE,152,9.0,14.0,82,0.00,,---,0.13,VWS V14.01,2013-09-29 15:03:00,
2013-09-29 08:06:00,44.2,38.8,29.66,SSE,163,10.0,14.0,81,0.00,,---,0.13,VWS V14.01,2013-09-29 15:06:00,
2013-09-29 08:07:00,44.2,38.4,29.66,SSE,151,9.0,14.0,80,0.00,,---,0.13,VWS V14.01,2013-09-29 15:07:00,
2013-09-29 08:08:00,44.3,38.5,29.66,SSE,161,11.0,15.0,80,0.00,,---,0.13,VWS V14.01,2013-09-29 15:08:00,
2013-09-29 08:12:00,44.4,38.9,29.66,SE,134,2.0,15.0,81,0.00,,---,0.13,VWS V14.01,2013-09-29 15:12:00,
2013-09-29 08:14:00,44.4,38.9,29.66,SE,146,9.0,11.0,81,0.00,,---,0.13,VWS V14.01,2013-09-29 15:14:00,
2013-09-29 08:17:00,44.5,38.7,29.67,SSE,153,8.0,14.0,80,0.00,,---,0.13,VWS V14.01,2013-09-29 15:17:00,
2013-09-29 08:19:00,44.6,38.5,29.67,SSE,160,9.0,15.0,79,0.00,,---,0.13,VWS V14.01,2013-09-29 15:19:00,
2013-09-29 08:20:00,44.8,38.7,29.67,SSW,195,14.0,18.0,79,0.00,,---,0.13,VWS V14.01,2013-09-29 15:20:00,
2013-09-29 08:22:00,44.9,38.5,29.67,SSE,148,16.0,22.0,78,0.00,,---,0.13,VWS V14.01,2013-09-29 15:22:00,
2013-09-29 08:25:00,45.1,39.0,29.68,SE,146,10.0,22.0,79,0.00,,---,0.13,VWS V14.01,2013-09-29 15:25:00,
2013-09-29 08:26:00,45.1,39.0,29.68,SSE,151,11.0,22.0,79,0.00,,---,0.13,VWS V14.01,2013-09-29 15:26:00,
2013-09-29 08:27:00,45.1,38.7,29.68,South,175,15.0,22.0,78,0.00,,---,0.13,VWS V14.01,2013-09-29 15:27:00,
2013-09-29 08:31:00,45.2,38.8,29.69,South,180,8.0,22.0,78,0.00,,---,0.13,VWS V14.01,2013-09-29 15:31:00,
2013-09-29 08:33:00,45.2,38.8,29.69,SSW,196,15.0,18.0,78,0.00,,---,0.13,VWS V14.01,2013-09-29 15:33:00,
2013-09-29 08:35:00,45.3,38.9,29.69,SSW,195,14.0,20.0,78,0.00,,---,0.13,VWS V14.01,2013-09-29 15:35:00,
2013-09-29 08:37:00,45.3,38.5,29.69,South,180,6.0,20.0,77,0.00,,---,0.13,VWS V14.01,2013-09-29 15:37:00,
2013-09-29 08:38:00,45.3,38.9,29.68,SSE,150,9.0,20.0,78,0.00,,---,0.13,VWS V14.01,2013-09-29 15:38:00,
2013-09-29 08:40:00,45.3,38.5,29.69,SW,230,14.0,20.0,77,0.00,,---,0.13,VWS V14.01,2013-09-29 15:40:00,
2013-09-29 08:43:00,45.3,38.5,29.69,South,189,9.0,12.0,77,0.00,,---,0.13,VWS V14.01,2013-09-29 15:43:00,
2013-09-29 08:44:00,45.3,38.9,29.69,South,171,15.0,15.0,78,0.00,,---,0.13,VWS V14.01,2013-09-29 15:44:00,
2013-09-29 08:46:00,45.3,38.5,29.69,SSW,207,16.0,24.0,77,0.00,,---,0.13,VWS V14.01,2013-09-29 15:46:00,
2013-09-29 08:48:00,45.4,38.6,29.69,South,180,15.0,24.0,77,0.00,,---,0.13,VWS V14.01,2013-09-29 15:48:00,
2013-09-29 08:49:00,45.4,38.6,29.69,South,173,17.0,24.0,77,0.00,,---,0.13,VWS V14.01,2013-09-29 15:49:00,
2013-09-29 08:50:00,45.4,38.3,29.69,SSW,202,9.0,24.0,76,0.00,,---,0.13,VWS V14.01,2013-09-29 15:50:00,
2013-09-29 08:51:00,45.4,38.6,29.69,SSW,192,10.0,24.0,77,0.00,,---,0.13,VWS V14.01,2013-09-29 15:51:00,
2013-09-29 08:54:00,45.4,38.6,29.70,South,169,6.0,17.0,77,0.00,,---,0.13,VWS V14.01,2013-09-29 15:54:00,
2013-09-29 08:55:00,45.4,38.6,29.70,South,185,12.0,17.0,77,0.00,,---,0.13,VWS V14.01,2013-09-29 15:55:00,
2013-09-29 08:59:00,45.4,38.6,29.70,SSW,200,9.0,23.0,77,0.00,,---,0.13,VWS V14.01,2013-09-29 15:59:00,
2013-09-29 09:00:00,45.4,38.6,29.70,South,184,10.0,23.0,77,0.00,,---,0.13,VWS V14.01,2013-09-29 16:00:00,
2013-09-29 09:02:00,45.4,38.6,29.70,South,190,9.0,23.0,77,0.00,,---,0.13,VWS V14.01,2013-09-29 16:02:00,
2013-09-29 09:05:00,45.4,38.6,29.70,SW,225,19.0,21.0,77,0.00,,---,0.13,VWS V14.01,2013-09-29 16:05:00,
2013-09-29 09:06:00,45.4,38.3,29.71,South,175,17.0,21.0,76,0.00,,---,0.13,VWS V14.01,2013-09-29 16:06:00,
2013-09-29 09:08:00,45.4,38.3,29.70,SSW,201,9.0,21.0,76,0.00,,---,0.13,VWS V14.01,2013-09-29 16:08:00,
2013-09-29 09:09:00,45.4,38.3,29.70,SSW,197,11.0,21.0,76,0.00,,---,0.13,VWS V14.01,2013-09-29 16:09:00,
2013-09-29 09:12:00,45.4,38.3,29.70,SSW,210,16.0,16.0,76,0.00,,---,0.13,VWS V14.01,2013-09-29 16:12:00,
2013-09-29 09:14:00,45.5,38.4,29.69,WSW,243,13.0,17.0,76,0.00,,---,0.13,VWS V14.01,2013-09-29 16:14:00,
2013-09-29 09:17:00,45.6,38.5,29.70,SSW,207,11.0,17.0,76,0.00,,---,0.13,VWS V14.01,2013-09-29 16:17:00,
2013-09-29 09:18:00,45.6,38.5,29.70,SSW,201,9.0,17.0,76,0.00,,---,0.13,VWS V14.01,2013-09-29 16:18:00,
2013-09-29 09:19:00,45.7,38.6,29.69,SSW,192,9.0,17.0,76,0.00,,---,0.13,VWS V14.01,2013-09-29 16:19:00,
2013-09-29 09:21:00,45.7,38.9,29.70,SSW,198,9.0,17.0,77,0.00,,---,0.13,VWS V14.01,2013-09-29 16:21:00,
2013-09-29 09:23:00,45.7,38.6,29.70,SSW,200,8.0,24.0,76,0.00,,---,0.13,VWS V14.01,2013-09-29 16:23:00,
2013-09-29 09:26:00,45.9,38.4,29.70,WSW,238,12.0,24.0,75,0.00,,---,0.13,VWS V14.01,2013-09-29 16:26:00,
2013-09-29 09:27:00,45.9,38.4,29.70,SW,219,10.0,24.0,75,0.00,,---,0.13,VWS V14.01,2013-09-29 16:27:00,
2013-09-29 09:29:00,45.9,38.8,29.70,South,189,7.0,24.0,76,0.00,,---,0.13,VWS V14.01,2013-09-29 16:29:00,
2013-09-29 09:31:00,46.0,38.9,29.70,South,184,4.0,24.0,76,0.00,,---,0.13,VWS V14.01,2013-09-29 16:31:00,
2013-09-29 09:32:00,46.0,38.9,29.70,SW,216,10.0,11.0,76,0.00,,---,0.13,VWS V14.01,2013-09-29 16:32:00,
2013-09-29 09:34:00,46.1,39.0,29.70,SW,221,7.0,13.0,76,0.00,,---,0.13,VWS V14.01,2013-09-29 16:34:00,
2013-09-29 09:37:00,46.1,39.0,29.70,SSW,204,11.0,19.0,76,0.00,,---,0.13,VWS V14.01,2013-09-29 16:37:00,
2013-09-29 09:39:00,46.0,38.9,29.69,South,178,6.0,19.0,76,0.00,,---,0.13,VWS V14.01,2013-09-29 16:39:00,
2013-09-29 09:42:00,45.9,39.4,29.69,SSW,192,10.0,11.0,78,0.00,,---,0.13,VWS V14.01,2013-09-29 16:42:00,
2013-09-29 09:44:00,45.9,39.4,29.69,South,178,4.0,13.0,78,0.00,,---,0.13,VWS V14.01,2013-09-29 16:44:00,
2013-09-29 09:45:00,45.9,39.4,29.69,SSE,168,10.0,13.0,78,0.00,,---,0.13,VWS V14.01,2013-09-29 16:45:00,
2013-09-29 09:48:00,45.9,39.1,29.69,SSW,205,5.0,16.0,77,0.00,,---,0.13,VWS V14.01,2013-09-29 16:48:00,
2013-09-29 09:50:00,45.9,39.4,29.69,South,169,7.0,16.0,78,0.00,,---,0.13,VWS V14.01,2013-09-29 16:50:00,
2013-09-29 09:52:00,45.9,39.8,29.70,WNW,288,10.0,10.0,79,0.00,,---,0.13,VWS V14.01,2013-09-29 16:52:00,
2013-09-29 09:54:00,46.0,39.5,29.69,SSW,209,13.0,15.0,78,0.00,,---,0.13,VWS V14.01,2013-09-29 16:54:00,
2013-09-29 09:55:00,46.0,39.5,29.69,South,191,7.0,15.0,78,0.00,,---,0.13,VWS V14.01,2013-09-29 16:55:00,
2013-09-29 09:58:00,46.0,39.5,29.69,South,186,5.0,15.0,78,0.00,,---,0.13,VWS V14.01,2013-09-29 16:58:00,
2013-09-29 09:59:00,46.0,39.5,29.70,South,184,9.0,15.0,78,0.00,,---,0.13,VWS V14.01,2013-09-29 16:59:00,
2013-09-29 10:01:00,45.9,39.4,29.69,South,190,8.0,15.0,78,0.00,,---,0.13,VWS V14.01,2013-09-29 17:01:00,
2013-09-29 10:04:00,46.0,40.2,29.70,SW,217,10.0,12.0,80,0.00,,---,0.13,VWS V14.01,2013-09-29 17:04:00,
2013-09-29 10:05:00,46.0,39.5,29.70,SW,223,7.0,12.0,78,0.00,,---,0.13,VWS V14.01,2013-09-29 17:05:00,
2013-09-29 10:06:00,46.0,39.5,29.70,South,184,5.0,12.0,78,0.00,,---,0.13,VWS V14.01,2013-09-29 17:06:00,
2013-09-29 10:09:00,46.0,39.5,29.70,SSW,192,7.0,14.0,78,0.00,,---,0.13,VWS V14.01,2013-09-29 17:09:00,
2013-09-29 10:11:00,46.1,39.6,29.70,South,190,11.0,14.0,78,0.00,,---,0.13,VWS V14.01,2013-09-29 17:11:00,
2013-09-29 10:12:00,46.1,39.6,29.70,SSW,208,8.0,11.0,78,0.00,,---,0.13,VWS V14.01,2013-09-29 17:12:00,
2013-09-29 10:13:00,46.1,39.6,29.70,South,181,10.0,12.0,78,0.00,,---,0.13,VWS V14.01,2013-09-29 17:13:00,
2013-09-29 10:16:00,46.3,39.5,29.70,South,181,12.0,19.0,77,0.00,,---,0.13,VWS V14.01,2013-09-29 17:16:00,
2013-09-29 10:19:00,46.3,39.8,29.70,SW,222,8.0,19.0,78,0.00,,---,0.13,VWS V14.01,2013-09-29 17:19:00,
2013-09-29 10:20:00,46.3,39.8,29.70,SSW,200,9.0,19.0,78,0.00,,---,0.13,VWS V14.01,2013-09-29 17:20:00,
2013-09-29 10:21:00,46.4,39.9,29.70,SSW,208,4.0,19.0,78,0.00,,---,0.13,VWS V14.01,2013-09-29 17:21:00,
2013-09-29 10:24:00,46.5,40.3,29.70,South,188,9.0,11.0,79,0.00,,---,0.13,VWS V14.01,2013-09-29 17:24:00,
2013-09-29 10:25:00,46.5,40.3,29.70,SSW,193,8.0,11.0,79,0.00,,---,0.13,VWS V14.01,2013-09-29 17:25:00,
2013-09-29 10:27:00,46.5,40.3,29.70,South,190,5.0,13.0,79,0.00,,---,0.13,VWS V14.01,2013-09-29 17:27:00,
2013-09-29 10:29:00,46.5,40.0,29.70,SSW,209,15.0,15.0,78,0.00,,---,0.13,VWS V14.01,2013-09-29 17:29:00,
2013-09-29 10:31:00,46.5,40.3,29.70,South,189,6.0,16.0,79,0.00,,---,0.13,VWS V14.01,2013-09-29 17:31:00,
2013-09-29 10:32:00,46.4,40.2,29.70,SSW,199,9.0,9.0,79,0.00,,---,0.13,VWS V14.01,2013-09-29 17:32:00,
2013-09-29 10:34:00,46.4,40.2,29.70,SSW,205,11.0,18.0,79,0.00,,---,0.13,VWS V14.01,2013-09-29 17:34:00,
2013-09-29 10:36:00,46.3,40.5,29.70,SW,215,7.0,18.0,80,0.00,,---,0.13,VWS V14.01,2013-09-29 17:36:00,
2013-09-29 10:37:00,46.3,40.2,29.70,SW,228,13.0,18.0,79,0.00,,---,0.13,VWS V14.01,2013-09-29 17:37:00,
2013-09-29 10:38:00,46.3,40.2,29.70,SW,224,9.0,18.0,79,0.00,,---,0.13,VWS V14.01,2013-09-29 17:38:00,
2013-09-29 10:40:00,46.3,40.5,29.70,SSW,209,11.0,21.0,80,0.00,,---,0.13,VWS V14.01,2013-09-29 17:40:00,
2013-09-29 10:42:00,46.3,40.5,29.69,SW,225,10.0,15.0,80,0.00,,---,0.13,VWS V14.01,2013-09-29 17:42:00,
2013-09-29 10:44:00,46.2,40.4,29.69,SSW,203,15.0,18.0,80,0.00,,---,0.13,VWS V14.01,2013-09-29 17:44:00,
2013-09-29 10:48:00,46.2,40.7,29.69,South,189,8.0,20.0,81,0.00,,---,0.13,VWS V14.01,2013-09-29 17:48:00,
2013-09-29 10:49:00,46.2,40.7,29.70,SSW,193,10.0,20.0,81,0.00,,---,0.13,VWS V14.01,2013-09-29 17:49:00,
2013-09-29 10:50:00,46.3,40.5,29.70,SSW,202,13.0,20.0,80,0.00,,---,0.13,VWS V14.01,2013-09-29 17:50:00,
2013-09-29 10:53:00,46.4,40.6,29.69,SSW,200,7.0,12.0,80,0.00,,---,0.13,VWS V14.01,2013-09-29 17:53:00,
2013-09-29 10:56:00,46.7,41.2,29.70,SW,229,9.0,18.0,81,0.00,,---,0.13,VWS V14.01,2013-09-29 17:56:00,
2013-09-29 10:58:00,46.9,41.1,29.70,SW,231,8.0,19.0,80,0.00,,---,0.13,VWS V14.01,2013-09-29 17:58:00,
2013-09-29 11:02:00,47.0,41.5,29.70,SSW,212,9.0,19.0,81,0.00,,---,0.13,VWS V14.01,2013-09-29 18:02:00,
2013-09-29 11:04:00,47.1,41.6,29.70,SSW,213,9.0,15.0,81,0.00,,---,0.13,VWS V14.01,2013-09-29 18:04:00,
2013-09-29 11:05:00,47.2,41.7,29.70,SW,235,12.0,17.0,81,0.00,,---,0.13,VWS V14.01,2013-09-29 18:05:00,
2013-09-29 11:08:00,47.3,41.5,29.70,SW,223,17.0,20.0,80,0.00,,---,0.13,VWS V14.01,2013-09-29 18:08:00,
2013-09-29 11:09:00,47.4,41.5,29.69,West,260,9.0,20.0,80,0.00,,---,0.13,VWS V14.01,2013-09-29 18:09:00,
2013-09-29 11:12:00,47.6,41.4,29.69,WSW,243,12.0,16.0,79,0.00,,---,0.13,VWS V14.01,2013-09-29 18:12:00,
2013-09-29 11:13:00,47.7,41.2,29.69,SW,215,9.0,20.0,78,0.00,,---,0.13,VWS V14.01,2013-09-29 18:13:00,
2013-09-29 11:14:00,48.0,41.5,29.69,SW,225,12.0,22.0,78,0.00,,---,0.13,VWS V14.01,2013-09-29 18:14:00,
2013-09-29 11:16:00,48.2,41.7,29.69,SW,221,14.0,22.0,78,0.00,,---,0.13,VWS V14.01,2013-09-29 18:16:00,
2013-09-29 11:18:00,48.4,41.9,29.69,WSW,240,14.0,22.0,78,0.00,,---,0.13,VWS V14.01,2013-09-29 18:18:00,
2013-09-29 11:19:00,48.5,41.6,29.69,SSW,199,8.0,22.0,77,0.00,,---,0.13,VWS V14.01,2013-09-29 18:19:00,
2013-09-29 11:20:00,48.6,41.7,29.69,SW,223,8.0,22.0,77,0.00,,---,0.13,VWS V14.01,2013-09-29 18:20:00,
2013-09-29 11:22:00,48.6,42.1,29.69,WSW,245,7.0,22.0,78,0.00,,---,0.13,VWS V14.01,2013-09-29 18:22:00,
2013-09-29 11:23:00,48.7,41.8,29.69,SSW,205,11.0,21.0,77,0.00,,---,0.13,VWS V14.01,2013-09-29 18:23:00,
2013-09-29 11:25:00,48.7,41.5,29.69,SW,224,20.0,22.0,76,0.00,,---,0.13,VWS V14.01,2013-09-29 18:25:00,
2013-09-29 11:27:00,48.4,41.5,29.69,SSW,207,11.0,22.0,77,0.00,,---,0.13,VWS V14.01,2013-09-29 18:27:00,
2013-09-29 11:28:00,48.2,41.3,29.69,SW,217,15.0,26.0,77,0.00,,---,0.13,VWS V14.01,2013-09-29 18:28:00,
2013-09-29 11:30:00,48.0,41.5,29.69,SW,215,11.0,26.0,78,0.00,,---,0.13,VWS V14.01,2013-09-29 18:30:00,
2013-09-29 11:33:00,47.9,41.4,29.69,SSW,208,9.0,25.0,78,0.00,,---,0.13,VWS V14.01,2013-09-29 18:33:00,
2013-09-29 11:34:00,47.9,41.4,29.69,SSW,198,13.0,25.0,78,0.00,,---,0.13,VWS V14.01,2013-09-29 18:34:00,
2013-09-29 11:35:00,47.9,41.7,29.69,SW,216,13.0,25.0,79,0.00,,---,0.13,VWS V14.01,2013-09-29 18:35:00,
2013-09-29 11:39:00,47.9,41.4,29.69,SSW,196,8.0,25.0,78,0.00,,---,0.13,VWS V14.01,2013-09-29 18:39:00,
2013-09-29 11:41:00,48.0,42.1,29.69,SW,233,14.0,25.0,80,0.00,,---,0.13,VWS V14.01,2013-09-29 18:41:00,
2013-09-29 11:42:00,48.0,42.1,29.69,SW,227,24.0,25.0,80,0.00,,---,0.13,VWS V14.01,2013-09-29 18:42:00,
2013-09-29 11:45:00,47.8,41.0,29.68,SSW,194,13.0,24.0,77,0.00,,---,0.13,VWS V14.01,2013-09-29 18:45:00,
2013-09-29 11:46:00,47.8,41.0,29.68,SW,234,14.0,24.0,77,0.00,,---,0.13,VWS V14.01,2013-09-29 18:46:00,
2013-09-29 11:48:00,47.8,41.0,29.68,SW,217,7.0,24.0,77,0.00,,---,0.13,VWS V14.01,2013-09-29 18:48:00,
2013-09-29 11:50:00,47.9,41.0,29.68,South,190,19.0,24.0,77,0.00,,---,0.13,VWS V14.01,2013-09-29 18:50:00,
2013-09-29 11:51:00,47.9,40.7,29.68,SSW,203,13.0,24.0,76,0.00,,---,0.13,VWS V14.01,2013-09-29 18:51:00,
2013-09-29 11:52:00,47.8,40.6,29.68,WSW,249,21.0,21.0,76,0.00,,---,0.13,VWS V14.01,2013-09-29 18:52:00,
2013-09-29 11:53:00,47.9,41.0,29.68,WSW,248,12.0,21.0,77,0.00,,---,0.13,VWS V14.01,2013-09-29 18:53:00,
2013-09-29 11:56:00,47.8,40.6,29.68,SSW,202,14.0,22.0,76,0.00,,---,0.13,VWS V14.01,2013-09-29 18:56:00,
2013-09-29 11:57:00,47.8,41.3,29.68,SW,224,13.0,22.0,78,0.00,,---,0.13,VWS V14.01,2013-09-29 18:57:00,
2013-09-29 11:58:00,47.8,41.3,29.68,SW,232,15.0,22.0,78,0.00,,---,0.13,VWS V14.01,2013-09-29 18:58:00,
2013-09-29 12:02:00,47.7,40.8,29.69,SW,224,19.0,25.0,77,0.00,,---,0.13,VWS V14.01,2013-09-29 19:02:00,
2013-09-29 12:03:00,47.5,40.7,29.69,SW,234,13.0,24.0,77,0.00,,---,0.13,VWS V14.01,2013-09-29 19:03:00,
2013-09-29 12:08:00,47.2,40.7,29.69,SW,232,10.0,24.0,78,0.00,,---,0.13,VWS V14.01,2013-09-29 19:08:00,
2013-09-29 12:09:00,47.2,41.0,29.69,SSW,207,17.0,24.0,79,0.00,,---,0.13,VWS V14.01,2013-09-29 19:09:00,
2013-09-29 12:10:00,47.2,41.0,29.69,SSW,201,20.0,24.0,79,0.00,,---,0.13,VWS V14.01,2013-09-29 19:10:00,
2013-09-29 12:11:00,47.1,40.6,29.69,SW,221,9.0,24.0,78,0.00,,---,0.13,VWS V14.01,2013-09-29 19:11:00,
2013-09-29 12:13:00,47.1,40.9,29.69,WSW,258,17.0,24.0,79,0.00,,---,0.13,VWS V14.01,2013-09-29 19:13:00,
2013-09-29 12:15:00,47.1,40.9,29.69,SW,227,14.0,24.0,79,0.00,,---,0.13,VWS V14.01,2013-09-29 19:15:00,
2013-09-29 12:16:00,47.1,40.9,29.69,SW,234,19.0,24.0,79,0.00,,---,0.13,VWS V14.01,2013-09-29 19:16:00,
2013-09-29 12:18:00,47.2,41.7,29.69,South,189,11.0,24.0,81,0.00,,---,0.13,VWS V14.01,2013-09-29 19:18:00,
2013-09-29 12:20:00,47.5,42.0,29.70,SW,236,7.0,24.0,81,0.00,,---,0.13,VWS V14.01,2013-09-29 19:20:00,
2013-09-29 12:22:00,47.7,41.8,29.70,WSW,246,15.0,24.0,80,0.00,,---,0.13,VWS V14.01,2013-09-29 19:22:00,
2013-09-29 12:23:00,47.8,41.6,29.70,SW,226,15.0,15.0,79,0.00,,---,0.13,VWS V14.01,2013-09-29 19:23:00,
2013-09-29 12:25:00,47.8,41.6,29.69,SSW,201,11.0,20.0,79,0.00,,---,0.13,VWS V14.01,2013-09-29 19:25:00,
2013-09-29 12:28:00,47.9,41.7,29.70,WSW,248,10.0,20.0,79,0.00,,---,0.13,VWS V14.01,2013-09-29 19:28:00,
2013-09-29 12:30:00,47.9,41.4,29.70,SW,230,9.0,20.0,78,0.00,,---,0.13,VWS V14.01,2013-09-29 19:30:00,
2013-09-29 12:32:00,47.9,41.7,29.70,WSW,247,5.0,20.0,79,0.00,,---,0.13,VWS V14.01,2013-09-29 19:32:00,
2013-09-29 12:33:00,47.8,41.6,29.70,SW,221,12.0,23.0,79,0.00,,---,0.13,VWS V14.01,2013-09-29 19:33:00,
2013-09-29 12:36:00,47.7,41.8,29.70,WSW,238,11.0,23.0,80,0.00,,---,0.13,VWS V14.01,2013-09-29 19:36:00,
2013-09-29 12:39:00,47.6,41.8,29.70,SW,232,10.0,23.0,80,0.00,,---,0.13,VWS V14.01,2013-09-29 19:39:00,
2013-09-29 12:42:00,47.6,41.8,29.70,WSW,242,10.0,23.0,80,0.00,,---,0.13,VWS V14.01,2013-09-29 19:42:00,
2013-09-29 12:43:00,47.5,41.7,29.70,WSW,253,11.0,18.0,80,0.00,,---,0.13,VWS V14.01,2013-09-29 19:43:00,
2013-09-29 12:45:00,47.5,42.0,29.70,SSW,211,5.0,18.0,81,0.00,,---,0.13,VWS V14.01,2013-09-29 19:45:00,
2013-09-29 12:48:00,47.4,41.9,29.70,SW,221,7.0,21.0,81,0.00,,---,0.13,VWS V14.01,2013-09-29 19:48:00,
2013-09-29 12:49:00,47.4,41.9,29.70,SSW,211,7.0,21.0,81,0.00,,---,0.13,VWS V14.01,2013-09-29 19:49:00,
2013-09-29 12:50:00,47.2,41.7,29.70,WSW,257,10.0,21.0,81,0.00,,---,0.13,VWS V14.01,2013-09-29 19:50:00,
2013-09-29 12:54:00,46.9,41.7,29.70,SW,223,9.0,16.0,82,0.00,,---,0.13,VWS V14.01,2013-09-29 19:54:00,
2013-09-29 12:55:00,46.9,42.3,29.70,WSW,255,9.0,16.0,84,0.00,,---,0.13,VWS V14.01,2013-09-29 19:55:00,
2013-09-29 12:59:00,46.5,42.5,29.70,SW,215,8.0,17.0,86,0.00,,---,0.13,VWS V14.01,2013-09-29 19:59:00,
2013-09-29 13:00:00,46.5,42.5,29.70,SSW,193,8.0,17.0,86,0.01,,---,0.14,VWS V14.01,2013-09-29 20:00:00,
2013-09-29 13:04:00,46.3,42.7,29.70,SSW,197,5.0,12.0,87,0.01,,---,0.14,VWS V14.01,2013-09-29 20:04:00,
2013-09-29 13:05:00,46.3,42.3,29.70,SSW,196,8.0,12.0,86,0.01,,---,0.14,VWS V14.01,2013-09-29 20:05:00,
2013-09-29 13:07:00,46.2,42.5,29.70,SW,229,7.0,12.0,87,0.01,,---,0.14,VWS V14.01,2013-09-29 20:07:00,
2013-09-29 13:09:00,46.1,42.5,29.70,SW,223,11.0,14.0,87,0.01,,---,0.14,VWS V14.01,2013-09-29 20:09:00,
2013-09-29 13:10:00,46.1,42.5,29.70,WSW,237,11.0,14.0,87,0.01,,---,0.14,VWS V14.01,2013-09-29 20:10:00,
2013-09-29 13:13:00,45.9,42.5,29.70,WSW,247,10.0,17.0,88,0.01,,---,0.14,VWS V14.01,2013-09-29 20:13:00,
2013-09-29 13:15:00,45.8,42.2,29.70,SW,219,5.0,17.0,87,0.01,,---,0.14,VWS V14.01,2013-09-29 20:15:00,
2013-09-29 13:16:00,45.8,42.5,29.70,SW,225,5.0,17.0,88,0.01,,---,0.14,VWS V14.01,2013-09-29 20:16:00,
2013-09-29 13:20:00,45.6,42.3,29.70,SSW,209,14.0,17.0,88,0.02,,---,0.15,VWS V14.01,2013-09-29 20:20:00,
2013-09-29 13:21:00,45.6,42.3,29.69,SW,229,7.0,17.0,88,0.02,,---,0.15,VWS V14.01,2013-09-29 20:21:00,
2013-09-29 13:22:00,45.5,42.2,29.69,WSW,245,5.0,5.0,88,0.02,,---,0.15,VWS V14.01,2013-09-29 20:22:00,
2013-09-29 13:24:00,45.4,42.3,29.69,SSW,198,14.0,14.0,89,0.03,,---,0.16,VWS V14.01,2013-09-29 20:24:00,
2013-09-29 13:25:00,45.4,42.1,29.69,SW,236,12.0,18.0,88,0.03,,---,0.16,VWS V14.01,2013-09-29 20:25:00,
2013-09-29 13:27:00,45.3,42.0,29.69,SW,222,10.0,18.0,88,0.03,,---,0.16,VWS V14.01,2013-09-29 20:27:00,
2013-09-29 13:28:00,45.3,42.3,29.69,SSW,202,9.0,18.0,89,0.03,,---,0.16,VWS V14.01,2013-09-29 20:28:00,
2013-09-29 13:29:00,45.2,42.2,29.68,SSW,213,3.0,18.0,89,0.03,,---,0.16,VWS V14.01,2013-09-29 20:29:00,
2013-09-29 13:30:00,45.2,42.2,29.69,SSW,204,6.0,18.0,89,0.03,,---,0.16,VWS V14.01,2013-09-29 20:30:00,
2013-09-29 13:32:00,45.1,42.1,29.69,SW,235,11.0,11.0,89,0.04,,---,0.17,VWS V14.01,2013-09-29 20:32:00,
2013-09-29 13:34:00,45.0,42.0,29.69,SSW,204,5.0,19.0,89,0.04,,---,0.17,VWS V14.01,2013-09-29 20:34:00,
2013-09-29 13:35:00,45.0,42.0,29.69,WSW,239,5.0,19.0,89,0.04,,---,0.17,VWS V14.01,2013-09-29 20:35:00,
2013-09-29 13:36:00,44.9,42.2,29.68,SSW,208,14.0,19.0,90,0.04,,---,0.17,VWS V14.01,2013-09-29 20:36:00,
2013-09-29 13:38:00,44.8,42.0,29.68,South,171,5.0,19.0,90,0.04,,---,0.17,VWS V14.01,2013-09-29 20:38:00,
2013-09-29 13:40:00,44.7,42.0,29.68,SSW,200,8.0,19.0,90,0.05,,---,0.18,VWS V14.01,2013-09-29 20:40:00,
2013-09-29 13:41:00,44.7,42.0,29.68,South,186,8.0,19.0,90,0.05,,---,0.18,VWS V14.01,2013-09-29 20:41:00,
2013-09-29 13:44:00,44.6,41.8,29.68,SSW,192,14.0,15.0,90,0.05,,---,0.18,VWS V14.01,2013-09-29 20:44:00,
2013-09-29 13:47:00,44.5,41.8,29.68,SW,236,5.0,19.0,90,0.05,,---,0.18,VWS V14.01,2013-09-29 20:47:00,
2013-09-29 13:49:00,44.5,41.8,29.68,South,188,8.0,19.0,90,0.05,,---,0.18,VWS V14.01,2013-09-29 20:49:00,
2013-09-29 13:52:00,44.5,41.5,29.68,SSW,213,9.0,13.0,89,0.06,,---,0.19,VWS V14.01,2013-09-29 20:52:00,
2013-09-29 13:54:00,44.5,41.8,29.68,WSW,239,8.0,14.0,90,0.06,,---,0.19,VWS V14.01,2013-09-29 20:54:00,
2013-09-29 13:58:00,44.4,41.7,29.69,SSW,194,4.0,19.0,90,0.07,,---,0.20,VWS V14.01,2013-09-29 20:58:00,
2013-09-29 13:59:00,44.4,41.7,29.69,SSW,211,7.0,19.0,90,0.07,,---,0.20,VWS V14.01,2013-09-29 20:59:00,
2013-09-29 14:01:00,44.4,41.7,29.69,SSW,206,6.0,19.0,90,0.07,,---,0.20,VWS V14.01,2013-09-29 21:01:00,
2013-09-29 14:03:00,44.4,41.9,29.69,SW,214,7.0,8.0,91,0.06,,---,0.20,VWS V14.01,2013-09-29 21:03:00,
2013-09-29 14:05:00,44.3,41.8,29.69,SSW,196,7.0,12.0,91,0.06,,---,0.20,VWS V14.01,2013-09-29 21:05:00,
2013-09-29 14:06:00,44.3,41.8,29.69,SW,236,12.0,16.0,91,0.06,,---,0.20,VWS V14.01,2013-09-29 21:06:00,
2013-09-29 14:08:00,44.3,41.6,29.68,SSW,212,9.0,16.0,90,0.06,,---,0.20,VWS V14.01,2013-09-29 21:08:00,
2013-09-29 14:10:00,44.2,41.5,29.68,SSW,196,7.0,16.0,90,0.07,,---,0.21,VWS V14.01,2013-09-29 21:10:00,
2013-09-29 14:11:00,44.2,41.5,29.69,SSW,204,15.0,21.0,90,0.07,,---,0.21,VWS V14.01,2013-09-29 21:11:00,
2013-09-29 14:15:00,44.2,41.7,29.68,SSW,196,7.0,13.0,91,0.07,,---,0.21,VWS V14.01,2013-09-29 21:15:00,
2013-09-29 14:16:00,44.1,41.7,29.68,SW,218,11.0,13.0,91,0.07,,---,0.21,VWS V14.01,2013-09-29 21:16:00,
2013-09-29 14:17:00,44.1,41.7,29.68,SSW,200,3.0,13.0,91,0.07,,---,0.21,VWS V14.01,2013-09-29 21:17:00,
2013-09-29 14:18:00,44.1,41.7,29.68,SW,229,5.0,13.0,91,0.07,,---,0.21,VWS V14.01,2013-09-29 21:18:00,
2013-09-29 14:20:00,44.2,41.7,29.68,WSW,238,5.0,20.0,91,0.08,,---,0.22,VWS V14.01,2013-09-29 21:20:00,
2013-09-29 14:22:00,44.2,41.7,29.68,SSE,153,9.0,16.0,91,0.07,,---,0.22,VWS V14.01,2013-09-29 21:22:00,
2013-09-29 14:23:00,44.2,41.7,29.68,South,180,9.0,16.0,91,0.07,,---,0.22,VWS V14.01,2013-09-29 21:23:00,
2013-09-29 14:24:00,44.2,41.7,29.68,SSW,203,9.0,16.0,91,0.07,,---,0.22,VWS V14.01,2013-09-29 21:24:00,
2013-09-29 14:26:00,44.2,41.7,29.69,SSW,202,6.0,16.0,91,0.07,,---,0.22,VWS V14.01,2013-09-29 21:26:00,
2013-09-29 14:27:00,44.3,41.8,29.69,South,188,14.0,16.0,91,0.07,,---,0.22,VWS V14.01,2013-09-29 21:27:00,
2013-09-29 14:28:00,44.3,41.8,29.69,SW,221,12.0,17.0,91,0.07,,---,0.22,VWS V14.01,2013-09-29 21:28:00,
2013-09-29 14:31:00,44.4,41.9,29.70,SSW,194,5.0,17.0,91,0.07,,---,0.22,VWS V14.01,2013-09-29 21:31:00,
2013-09-29 14:32:00,44.4,41.9,29.70,SW,217,8.0,8.0,91,0.06,,---,0.22,VWS V14.01,2013-09-29 21:32:00,
2013-09-29 14:33:00,44.5,42.0,29.70,SW,225,11.0,15.0,91,0.07,,---,0.23,VWS V14.01,2013-09-29 21:33:00,
2013-09-29 14:36:00,44.6,42.4,29.69,SSW,200,4.0,15.0,92,0.07,,---,0.23,VWS V14.01,2013-09-29 21:36:00,
2013-09-29 14:37:00,44.6,42.4,29.70,South,190,8.0,15.0,92,0.07,,---,0.23,VWS V14.01,2013-09-29 21:37:00,
2013-09-29 14:39:00,44.6,42.1,29.69,SSW,192,10.0,16.0,91,0.07,,---,0.23,VWS V14.01,2013-09-29 21:39:00,
2013-09-29 14:42:00,44.7,41.4,29.69,SSW,193,9.0,18.0,88,0.06,,---,0.24,VWS V14.01,2013-09-29 21:42:00,
2013-09-29 14:43:00,44.7,41.7,29.69,SSW,208,11.0,18.0,89,0.06,,---,0.24,VWS V14.01,2013-09-29 21:43:00,
2013-09-29 14:44:00,44.7,41.7,29.69,South,187,10.0,18.0,89,0.06,,---,0.24,VWS V14.01,2013-09-29 21:44:00,
2013-09-29 14:47:00,44.7,42.2,29.69,SSE,162,14.0,20.0,91,0.06,,---,0.24,VWS V14.01,2013-09-29 21:47:00,
2013-09-29 14:48:00,44.7,42.0,29.69,SSW,198,9.0,20.0,90,0.06,,---,0.24,VWS V14.01,2013-09-29 21:48:00,
2013-09-29 14:49:00,44.7,42.0,29.70,SSW,194,14.0,20.0,90,0.06,,---,0.24,VWS V14.01,2013-09-29 21:49:00,
2013-09-29 14:51:00,44.6,41.8,29.70,SSW,196,11.0,20.0,90,0.06,,---,0.24,VWS V14.01,2013-09-29 21:51:00,
2013-09-29 14:53:00,44.6,41.8,29.70,South,190,10.0,18.0,90,0.05,,---,0.24,VWS V14.01,2013-09-29 21:53:00,
2013-09-29 14:54:00,44.6,41.8,29.70,SSW,194,12.0,19.0,90,0.05,,---,0.24,VWS V14.01,2013-09-29 21:54:00,
2013-09-29 14:57:00,44.5,41.8,29.70,South,185,17.0,20.0,90,0.05,,---,0.24,VWS V14.01,2013-09-29 21:57:00,
2013-09-29 14:59:00,44.5,41.5,29.70,SSE,153,16.0,30.0,89,0.06,,---,0.25,VWS V14.01,2013-09-29 21:59:00,
2013-09-29 15:00:00,44.5,41.5,29.69,SSW,194,15.0,30.0,89,0.06,,---,0.25,VWS V14.01,2013-09-29 22:00:00,
2013-09-29 15:05:00,44.3,41.6,29.69,WSW,250,9.0,20.0,90,0.05,,---,0.25,VWS V14.01,2013-09-29 22:05:00,
2013-09-29 15:06:00,44.2,41.5,29.69,South,186,13.0,20.0,90,0.06,,---,0.26,VWS V14.01,2013-09-29 22:06:00,
2013-09-29 15:10:00,44.0,41.0,29.69,SW,221,9.0,22.0,89,0.06,,---,0.26,VWS V14.01,2013-09-29 22:10:00,
2013-09-29 15:11:00,44.0,41.0,29.69,SW,221,14.0,22.0,89,0.06,,---,0.26,VWS V14.01,2013-09-29 22:11:00,
2013-09-29 15:12:00,44.0,41.0,29.69,WSW,238,8.0,8.0,89,0.05,,---,0.26,VWS V14.01,2013-09-29 22:12:00,
2013-09-29 15:16:00,43.8,41.1,29.69,SSW,197,9.0,23.0,90,0.06,,---,0.27,VWS V14.01,2013-09-29 22:16:00,
2013-09-29 15:17:00,43.9,41.2,29.69,SSW,209,6.0,23.0,90,0.06,,---,0.27,VWS V14.01,2013-09-29 22:17:00,
2013-09-29 15:22:00,43.8,41.3,29.69,South,179,6.0,10.0,91,0.06,,---,0.28,VWS V14.01,2013-09-29 22:22:00,
2013-09-29 15:23:00,43.8,41.3,29.69,South,184,15.0,15.0,91,0.06,,---,0.28,VWS V14.01,2013-09-29 22:23:00,
2013-09-29 15:24:00,43.8,41.3,29.68,South,184,8.0,22.0,91,0.06,,---,0.28,VWS V14.01,2013-09-29 22:24:00,
2013-09-29 15:28:00,43.9,41.5,29.68,South,173,16.0,23.0,91,0.06,,---,0.28,VWS V14.01,2013-09-29 22:28:00,
2013-09-29 15:29:00,43.9,41.5,29.68,South,191,9.0,23.0,91,0.06,,---,0.28,VWS V14.01,2013-09-29 22:29:00,
2013-09-29 15:30:00,43.9,41.5,29.68,SSE,157,10.0,23.0,91,0.06,,---,0.28,VWS V14.01,2013-09-29 22:30:00,
2013-09-29 15:33:00,43.9,41.7,29.68,South,187,12.0,13.0,92,0.07,,---,0.29,VWS V14.01,2013-09-29 22:33:00,
2013-09-29 15:34:00,43.9,41.7,29.68,South,190,6.0,15.0,92,0.07,,---,0.29,VWS V14.01,2013-09-29 22:34:00,
2013-09-29 15:36:00,43.9,41.7,29.68,SSE,157,7.0,15.0,92,0.07,,---,0.29,VWS V14.01,2013-09-29 22:36:00,
2013-09-29 15:39:00,44.0,41.8,29.68,South,171,11.0,20.0,92,0.07,,---,0.29,VWS V14.01,2013-09-29 22:39:00,
2013-09-29 15:43:00,44.0,41.8,29.68,South,173,10.0,13.0,92,0.05,,---,0.29,VWS V14.01,2013-09-29 22:43:00,
2013-09-29 15:44:00,44.0,41.8,29.68,SSW,207,11.0,14.0,92,0.05,,---,0.29,VWS V14.01,2013-09-29 22:44:00,
2013-09-29 15:45:00,44.0,41.5,29.68,SSW,203,6.0,19.0,91,0.05,,---,0.29,VWS V14.01,2013-09-29 22:45:00,
2013-09-29 15:49:00,44.1,41.7,29.68,SSW,209,8.0,20.0,91,0.06,,---,0.30,VWS V14.01,2013-09-29 22:49:00,
2013-09-29 15:50:00,44.1,41.7,29.68,SW,216,11.0,20.0,91,0.06,,---,0.30,VWS V14.01,2013-09-29 22:50:00,
2013-09-29 15:51:00,44.1,41.7,29.68,SSW,202,8.0,20.0,91,0.06,,---,0.30,VWS V14.01,2013-09-29 22:51:00,
2013-09-29 15:52:00,44.1,41.7,29.68,WSW,252,8.0,20.0,91,0.06,,---,0.30,VWS V14.01,2013-09-29 22:52:00,
2013-09-29 15:54:00,44.0,41.3,29.68,SSE,165,4.0,23.0,90,0.06,,---,0.30,VWS V14.01,2013-09-29 22:54:00,
2013-09-29 15:57:00,44.0,41.5,29.68,South,190,10.0,23.0,91,0.07,,---,0.31,VWS V14.01,2013-09-29 22:57:00,
2013-09-29 15:59:00,44.0,41.5,29.68,South,175,8.0,23.0,91,0.07,,---,0.31,VWS V14.01,2013-09-29 22:59:00,
2013-09-29 16:00:00,44.0,41.5,29.68,SSW,194,14.0,23.0,91,0.07,,---,0.31,VWS V14.01,2013-09-29 23:00:00,
2013-09-29 16:02:00,43.9,41.5,29.68,SSW,200,11.0,15.0,91,0.06,,---,0.31,VWS V14.01,2013-09-29 23:02:00,
2013-09-29 16:03:00,43.9,41.5,29.68,SSE,167,9.0,19.0,91,0.07,,---,0.32,VWS V14.01,2013-09-29 23:03:00,
2013-09-29 16:05:00,43.9,41.5,29.68,SSE,161,8.0,19.0,91,0.07,,---,0.32,VWS V14.01,2013-09-29 23:05:00,
2013-09-29 16:07:00,43.8,41.6,29.67,South,169,6.0,19.0,92,0.07,,---,0.32,VWS V14.01,2013-09-29 23:07:00,
2013-09-29 16:10:00,43.8,41.6,29.67,SW,223,13.0,19.0,92,0.07,,---,0.32,VWS V14.01,2013-09-29 23:10:00,
2013-09-29 16:11:00,43.8,41.6,29.67,SSW,201,11.0,19.0,92,0.07,,---,0.32,VWS V14.01,2013-09-29 23:11:00,
2013-09-29 16:12:00,43.8,41.6,29.67,SW,223,14.0,17.0,92,0.06,,---,0.32,VWS V14.01,2013-09-29 23:12:00,
2013-09-29 16:14:00,43.8,41.6,29.67,SSW,202,8.0,17.0,92,0.07,,---,0.33,VWS V14.01,2013-09-29 23:14:00,
2013-09-29 16:15:00,43.8,41.6,29.67,South,171,8.0,17.0,92,0.07,,---,0.33,VWS V14.01,2013-09-29 23:15:00,
2013-09-29 16:17:00,43.8,41.6,29.67,South,176,7.0,17.0,92,0.07,,---,0.33,VWS V14.01,2013-09-29 23:17:00,
2013-09-29 16:20:00,43.8,41.6,29.67,SSE,165,7.0,17.0,92,0.08,,---,0.34,VWS V14.01,2013-09-29 23:20:00,
2013-09-29 16:21:00,43.8,41.6,29.67,SSW,202,9.0,17.0,92,0.08,,---,0.34,VWS V14.01,2013-09-29 23:21:00,
2013-09-29 16:24:00,43.7,41.5,29.67,South,191,11.0,15.0,92,0.06,,---,0.34,VWS V14.01,2013-09-29 23:24:00,
2013-09-29 16:26:00,43.7,41.5,29.67,SSW,207,13.0,15.0,92,0.06,,---,0.34,VWS V14.01,2013-09-29 23:26:00,
2013-09-29 16:27:00,43.8,41.6,29.66,SW,217,5.0,15.0,92,0.06,,---,0.34,VWS V14.01,2013-09-29 23:27:00,
2013-09-29 16:28:00,43.8,41.6,29.66,SSW,208,10.0,15.0,92,0.06,,---,0.34,VWS V14.01,2013-09-29 23:28:00,
2013-09-29 16:30:00,43.8,41.6,29.66,South,178,8.0,15.0,92,0.06,,---,0.34,VWS V14.01,2013-09-29 23:30:00,
2013-09-29 16:32:00,43.8,41.6,29.66,SSW,210,9.0,14.0,92,0.06,,---,0.34,VWS V14.01,2013-09-29 23:32:00,
2013-09-29 16:33:00,43.8,41.6,29.66,South,188,7.0,14.0,92,0.06,,---,0.34,VWS V14.01,2013-09-29 23:33:00,
2013-09-29 16:35:00,43.8,41.6,29.66,South,171,17.0,19.0,92,0.07,,---,0.35,VWS V14.01,2013-09-29 23:35:00,
2013-09-29 16:37:00,43.8,41.6,29.66,SSW,203,12.0,19.0,92,0.07,,---,0.35,VWS V14.01,2013-09-29 23:37:00,
2013-09-29 16:39:00,43.8,41.6,29.66,South,171,12.0,19.0,92,0.07,,---,0.35,VWS V14.01,2013-09-29 23:39:00,
2013-09-29 16:40:00,43.8,41.6,29.66,South,185,14.0,19.0,92,0.07,,---,0.35,VWS V14.01,2013-09-29 23:40:00,
2013-09-29 16:41:00,43.8,41.6,29.66,SSW,192,12.0,19.0,92,0.07,,---,0.35,VWS V14.01,2013-09-29 23:41:00,
2013-09-29 16:45:00,43.8,41.6,29.67,SSW,209,12.0,20.0,92,0.06,,---,0.35,VWS V14.01,2013-09-29 23:45:00,
2013-09-29 16:46:00,43.8,41.6,29.67,SW,225,12.0,20.0,92,0.06,,---,0.35,VWS V14.01,2013-09-29 23:46:00,
2013-09-29 16:47:00,43.8,41.6,29.67,SSW,206,7.0,20.0,92,0.06,,---,0.35,VWS V14.01,2013-09-29 23:47:00,
2013-09-29 16:51:00,43.8,41.6,29.67,South,183,12.0,24.0,92,0.06,,---,0.35,VWS V14.01,2013-09-29 23:51:00,
2013-09-29 16:52:00,43.8,41.6,29.67,SW,223,7.0,7.0,92,0.05,,---,0.35,VWS V14.01,2013-09-29 23:52:00,
2013-09-29 16:57:00,43.8,41.6,29.67,South,187,4.0,17.0,92,0.06,,---,0.36,VWS V14.01,2013-09-29 23:57:00,
2013-09-29 16:58:00,43.8,41.6,29.66,SSW,203,14.0,17.0,92,0.06,,---,0.36,VWS V14.01,2013-09-29 23:58:00,
2013-09-29 16:59:00,43.8,41.6,29.66,South,178,6.0,17.0,92,0.06,,---,0.36,VWS V14.01,2013-09-29 23:59:00,
2013-09-29 17:01:00,43.8,41.6,29.66,SSW,210,13.0,20.0,92,0.06,,---,0.36,VWS V14.01,2013-09-30 00:01:00,
2013-09-29 17:03:00,43.8,41.6,29.66,South,178,10.0,16.0,92,0.05,,---,0.36,VWS V14.01,2013-09-30 00:03:00,
2013-09-29 17:04:00,43.8,41.6,29.66,SSW,209,11.0,16.0,92,0.05,,---,0.36,VWS V14.01,2013-09-30 00:04:00,
2013-09-29 17:07:00,43.8,41.6,29.66,SW,220,11.0,23.0,92,0.06,,---,0.37,VWS V14.01,2013-09-30 00:07:00,
2013-09-29 17:09:00,43.8,41.6,29.66,SW,227,12.0,23.0,92,0.06,,---,0.37,VWS V14.01,2013-09-30 00:09:00,
2013-09-29 17:12:00,43.8,41.6,29.66,South,186,12.0,17.0,92,0.05,,---,0.37,VWS V14.01,2013-09-30 00:12:00,
2013-09-29 17:14:00,43.8,41.6,29.65,South,186,12.0,17.0,92,0.05,,---,0.37,VWS V14.01,2013-09-30 00:14:00,
2013-09-29 17:15:00,43.8,41.6,29.65,South,188,8.0,17.0,92,0.05,,---,0.37,VWS V14.01,2013-09-30 00:15:00,
2013-09-29 17:17:00,43.7,41.5,29.65,SW,222,12.0,17.0,92,0.05,,---,0.37,VWS V14.01,2013-09-30 00:17:00,
2013-09-29 17:18:00,43.7,41.5,29.65,South,187,14.0,20.0,92,0.05,,---,0.37,VWS V14.01,2013-09-30 00:18:00,
2013-09-29 17:20:00,43.7,41.5,29.65,SW,215,12.0,20.0,92,0.05,,---,0.37,VWS V14.01,2013-09-30 00:20:00,
2013-09-29 17:23:00,43.7,41.8,29.65,SW,225,7.0,13.0,93,0.04,,---,0.38,VWS V14.01,2013-09-30 00:23:00,
2013-09-29 17:25:00,43.7,41.5,29.65,SW,218,8.0,18.0,92,0.04,,---,0.38,VWS V14.01,2013-09-30 00:25:00,
2013-09-29 17:28:00,43.6,41.7,29.65,SSW,192,8.0,18.0,93,0.04,,---,0.38,VWS V14.01,2013-09-30 00:28:00,
2013-09-29 17:29:00,43.6,41.7,29.64,South,191,11.0,18.0,93,0.04,,---,0.38,VWS V14.01,2013-09-30 00:29:00,
2013-09-29 17:31:00,43.7,41.8,29.65,SSW,212,13.0,18.0,93,0.04,,---,0.38,VWS V14.01,2013-09-30 00:31:00,
2013-09-29 17:34:00,43.7,41.8,29.65,SW,215,10.0,16.0,93,0.04,,---,0.38,VWS V14.01,2013-09-30 00:34:00,
2013-09-29 17:36:00,43.7,41.8,29.64,SW,225,9.0,16.0,93,0.04,,---,0.38,VWS V14.01,2013-09-30 00:36:00,
2013-09-29 17:37:00,43.6,41.7,29.64,SW,216,10.0,16.0,93,0.04,,---,0.38,VWS V14.01,2013-09-30 00:37:00,
2013-09-29 17:38:00,43.6,41.7,29.64,SW,232,10.0,16.0,93,0.04,,---,0.38,VWS V14.01,2013-09-30 00:38:00,
2013-09-29 17:40:00,43.7,41.8,29.64,WSW,245,11.0,17.0,93,0.05,,---,0.39,VWS V14.01,2013-09-30 00:40:00,
2013-09-29 17:43:00,43.7,41.8,29.64,SSW,201,8.0,13.0,93,0.04,,---,0.39,VWS V14.01,2013-09-30 00:43:00,
2013-09-29 17:44:00,43.7,41.8,29.64,South,189,9.0,14.0,93,0.04,,---,0.39,VWS V14.01,2013-09-30 00:44:00,
2013-09-29 17:47:00,43.7,41.8,29.63,SW,215,13.0,17.0,93,0.04,,---,0.39,VWS V14.01,2013-09-30 00:47:00,
2013-09-29 17:49:00,43.7,41.8,29.63,SW,224,16.0,17.0,93,0.04,,---,0.39,VWS V14.01,2013-09-30 00:49:00,
2013-09-29 17:50:00,43.7,41.8,29.63,SSW,202,10.0,17.0,93,0.04,,---,0.39,VWS V14.01,2013-09-30 00:50:00,
2013-09-29 17:54:00,43.7,41.8,29.63,WSW,240,5.0,18.0,93,0.05,,---,0.40,VWS V14.01,2013-09-30 00:54:00,
2013-09-29 17:56:00,43.7,41.8,29.63,SW,217,7.0,18.0,93,0.05,,---,0.40,VWS V14.01,2013-09-30 00:56:00,
2013-09-29 17:59:00,43.7,41.8,29.63,WSW,237,6.0,18.0,93,0.05,,---,0.40,VWS V14.01,2013-09-30 00:59:00,
2013-09-29 18:00:00,43.7,41.8,29.63,SW,234,11.0,18.0,93,0.05,,---,0.40,VWS V14.01,2013-09-30 01:00:00,
2013-09-29 18:01:00,43.7,41.8,29.63,SW,223,13.0,18.0,93,0.06,,---,0.41,VWS V14.01,2013-09-30 01:01:00,
2013-09-29 18:05:00,43.8,41.9,29.63,SSW,203,12.0,15.0,93,0.05,,---,0.41,VWS V14.01,2013-09-30 01:05:00,
2013-09-29 18:06:00,43.8,41.9,29.63,SW,219,6.0,15.0,93,0.05,,---,0.41,VWS V14.01,2013-09-30 01:06:00,
2013-09-29 18:10:00,43.9,42.3,29.62,SSW,196,8.0,15.0,94,0.06,,---,0.42,VWS V14.01,2013-09-30 01:10:00,
2013-09-29 18:11:00,43.9,42.0,29.62,SSW,199,11.0,16.0,93,0.06,,---,0.42,VWS V14.01,2013-09-30 01:11:00,
2013-09-29 18:13:00,44.0,42.1,29.62,SSW,196,5.0,14.0,93,0.05,,---,0.42,VWS V14.01,2013-09-30 01:13:00,
2013-09-29 18:15:00,44.0,42.4,29.63,SW,235,9.0,18.0,94,0.05,,---,0.42,VWS V14.01,2013-09-30 01:15:00,
2013-09-29 18:18:00,44.1,42.2,29.63,SW,225,12.0,18.0,93,0.05,,---,0.42,VWS V14.01,2013-09-30 01:18:00,
2013-09-29 18:20:00,44.2,42.6,29.62,SSW,202,11.0,18.0,94,0.05,,---,0.42,VWS V14.01,2013-09-30 01:20:00,
2013-09-29 18:21:00,44.2,42.6,29.63,SW,217,7.0,18.0,94,0.05,,---,0.42,VWS V14.01,2013-09-30 01:21:00,
2013-09-29 18:22:00,44.2,42.3,29.62,SW,217,12.0,15.0,93,0.05,,---,0.43,VWS V14.01,2013-09-30 01:22:00,
2013-09-29 18:23:00,44.2,42.3,29.62,SW,216,15.0,17.0,93,0.05,,---,0.43,VWS V14.01,2013-09-30 01:23:00,
2013-09-29 18:25:00,44.3,42.4,29.63,SSW,199,9.0,17.0,93,0.05,,---,0.43,VWS V14.01,2013-09-30 01:25:00,
2013-09-29 18:26:00,44.3,42.4,29.63,SSW,213,8.0,17.0,93,0.05,,---,0.43,VWS V14.01,2013-09-30 01:26:00,
2013-09-29 18:28:00,44.4,42.5,29.63,SW,234,10.0,18.0,93,0.05,,---,0.43,VWS V14.01,2013-09-30 01:28:00,
2013-09-29 18:30:00,44.4,42.5,29.63,SSW,192,10.0,18.0,93,0.06,,---,0.44,VWS V14.01,2013-09-30 01:30:00,
2013-09-29 18:31:00,44.4,42.5,29.63,SSW,192,10.0,18.0,93,0.06,,---,0.44,VWS V14.01,2013-09-30 01:31:00,
2013-09-29 18:33:00,44.4,42.5,29.63,SW,236,9.0,18.0,93,0.06,,---,0.44,VWS V14.01,2013-09-30 01:33:00,
2013-09-29 18:35:00,44.4,42.5,29.63,SW,215,12.0,18.0,93,0.06,,---,0.44,VWS V14.01,2013-09-30 01:35:00,
2013-09-29 18:36:00,44.4,42.5,29.63,SSW,193,10.0,18.0,93,0.06,,---,0.44,VWS V14.01,2013-09-30 01:36:00,
2013-09-29 18:38:00,44.5,42.6,29.63,SSW,198,12.0,18.0,93,0.07,,---,0.45,VWS V14.01,2013-09-30 01:38:00,
2013-09-29 18:39:00,44.5,42.6,29.63,SW,221,8.0,18.0,93,0.07,,---,0.45,VWS V14.01,2013-09-30 01:39:00,
2013-09-29 18:41:00,44.5,42.6,29.63,SW,218,11.0,18.0,93,0.07,,---,0.45,VWS V14.01,2013-09-30 01:41:00,
2013-09-29 18:46:00,44.6,43.0,29.62,SSW,205,8.0,20.0,94,0.06,,---,0.45,VWS V14.01,2013-09-30 01:46:00,
2013-09-29 18:48:00,44.6,43.0,29.62,SW,225,10.0,20.0,94,0.06,,---,0.45,VWS V14.01,2013-09-30 01:48:00,
2013-09-29 18:51:00,44.6,43.0,29.62,SW,225,10.0,20.0,94,0.07,,---,0.46,VWS V14.01,2013-09-30 01:51:00,
2013-09-29 18:52:00,44.6,43.0,29.62,SW,214,9.0,20.0,94,0.07,,---,0.46,VWS V14.01,2013-09-30 01:52:00,
2013-09-29 18:53:00,44.7,43.1,29.62,SSW,212,8.0,14.0,94,0.06,,---,0.46,VWS V14.01,2013-09-30 01:53:00,
2013-09-29 18:57:00,44.8,43.2,29.62,WSW,238,9.0,15.0,94,0.06,,---,0.46,VWS V14.01,2013-09-30 01:57:00,
2013-09-29 18:58:00,44.8,43.2,29.63,SSW,212,8.0,15.0,94,0.06,,---,0.46,VWS V14.01,2013-09-30 01:58:00,
2013-09-29 18:59:00,44.9,43.3,29.62,SSW,210,5.0,19.0,94,0.06,,---,0.46,VWS V14.01,2013-09-30 01:59:00,
2013-09-29 19:02:00,45.0,43.4,29.63,SW,219,10.0,13.0,94,0.06,,---,0.47,VWS V14.01,2013-09-30 02:02:00,
2013-09-29 19:03:00,45.1,43.5,29.63,SSW,200,9.0,15.0,94,0.06,,---,0.47,VWS V14.01,2013-09-30 02:03:00,
2013-09-29 19:07:00,45.2,43.6,29.63,SW,225,16.0,17.0,94,0.06,,---,0.47,VWS V14.01,2013-09-30 02:07:00,
2013-09-29 19:08:00,45.3,43.7,29.63,South,188,10.0,17.0,94,0.06,,---,0.47,VWS V14.01,2013-09-30 02:08:00,
2013-09-29 19:10:00,45.3,43.7,29.63,SW,215,10.0,17.0,94,0.07,,---,0.48,VWS V14.01,2013-09-30 02:10:00,
2013-09-29 19:12:00,45.4,43.8,29.63,WSW,238,9.0,15.0,94,0.06,,---,0.48,VWS V14.01,2013-09-30 02:12:00,
2013-09-29 19:13:00,45.4,43.8,29.63,SW,221,7.0,15.0,94,0.06,,---,0.48,VWS V14.01,2013-09-30 02:13:00,
2013-09-29 19:14:00,45.4,43.8,29.63,SW,234,10.0,15.0,94,0.06,,---,0.48,VWS V14.01,2013-09-30 02:14:00,
2013-09-29 19:18:00,45.5,43.9,29.63,WSW,257,10.0,16.0,94,0.06,,---,0.48,VWS V14.01,2013-09-30 02:18:00,
2013-09-29 19:19:00,45.5,43.9,29.63,WSW,242,10.0,16.0,94,0.07,,---,0.49,VWS V14.01,2013-09-30 02:19:00,
2013-09-29 19:20:00,45.5,43.9,29.63,SW,216,13.0,16.0,94,0.07,,---,0.49,VWS V14.01,2013-09-30 02:20:00,
2013-09-29 19:23:00,45.6,44.0,29.63,SSW,206,15.0,21.0,94,0.06,,---,0.49,VWS V14.01,2013-09-30 02:23:00,
2013-09-29 19:24:00,45.7,44.1,29.63,SSW,212,13.0,21.0,94,0.07,,---,0.50,VWS V14.01,2013-09-30 02:24:00,
2013-09-29 19:25:00,45.7,44.1,29.63,SW,229,15.0,21.0,94,0.07,,---,0.50,VWS V14.01,2013-09-30 02:25:00,
2013-09-29 19:26:00,45.7,44.1,29.63,WSW,238,10.0,21.0,94,0.07,,---,0.50,VWS V14.01,2013-09-30 02:26:00,
2013-09-29 19:28:00,45.8,44.2,29.62,SW,227,12.0,21.0,94,0.08,,---,0.51,VWS V14.01,2013-09-30 02:28:00,
2013-09-29 19:29:00,45.8,44.2,29.62,SW,229,13.0,21.0,94,0.08,,---,0.51,VWS V14.01,2013-09-30 02:29:00,
2013-09-29 19:31:00,45.8,44.2,29.62,SW,215,11.0,21.0,94,0.08,,---,0.51,VWS V14.01,2013-09-30 02:31:00,
2013-09-29 19:32:00,45.9,44.3,29.62,SSW,211,8.0,21.0,94,0.09,,---,0.52,VWS V14.01,2013-09-30 02:32:00,
2013-09-29 19:34:00,45.9,44.3,29.62,SW,221,9.0,16.0,94,0.08,,---,0.52,VWS V14.01,2013-09-30 02:34:00,
2013-09-29 19:35:00,45.9,44.3,29.62,SW,226,8.0,16.0,94,0.08,,---,0.52,VWS V14.01,2013-09-30 02:35:00,
2013-09-29 19:36:00,45.9,44.3,29.63,South,191,10.0,16.0,94,0.08,,---,0.52,VWS V14.01,2013-09-30 02:36:00,
2013-09-29 19:37:00,46.0,44.4,29.62,SW,234,7.0,16.0,94,0.08,,---,0.52,VWS V14.01,2013-09-30 02:37:00,
2013-09-29 19:40:00,46.1,44.5,29.63,South,187,12.0,17.0,94,0.09,,---,0.53,VWS V14.01,2013-09-30 02:40:00,
2013-09-29 19:42:00,46.1,44.5,29.63,SW,217,4.0,17.0,94,0.09,,---,0.53,VWS V14.01,2013-09-30 02:42:00,
2013-09-29 19:46:00,46.3,44.7,29.62,SW,220,15.0,17.0,94,0.09,,---,0.54,VWS V14.01,2013-09-30 02:46:00,
2013-09-29 19:47:00,46.3,44.7,29.62,SW,220,12.0,17.0,94,0.09,,---,0.54,VWS V14.01,2013-09-30 02:47:00,
2013-09-29 19:49:00,46.4,44.8,29.62,SSW,209,9.0,21.0,94,0.10,,---,0.55,VWS V14.01,2013-09-30 02:49:00,
2013-09-29 19:52:00,46.6,45.0,29.62,SSW,197,10.0,10.0,94,0.09,,---,0.55,VWS V14.01,2013-09-30 02:52:00,
2013-09-29 19:54:00,46.6,45.0,29.62,SW,227,14.0,22.0,94,0.09,,---,0.55,VWS V14.01,2013-09-30 02:54:00,
2013-09-29 19:56:00,46.6,45.0,29.62,SSW,213,8.0,22.0,94,0.10,,---,0.56,VWS V14.01,2013-09-30 02:56:00,
2013-09-29 19:57:00,46.6,45.0,29.62,SW,219,11.0,22.0,94,0.10,,---,0.56,VWS V14.01,2013-09-30 02:57:00,
2013-09-29 19:58:00,46.6,45.0,29.62,SSW,203,6.0,22.0,94,0.10,,---,0.56,VWS V14.01,2013-09-30 02:58:00,
2013-09-29 20:00:00,46.5,44.9,29.62,SW,218,8.0,22.0,94,0.10,,---,0.56,VWS V14.01,2013-09-30 03:00:00,
2013-09-29 20:02:00,46.6,45.0,29.62,SSW,209,10.0,22.0,94,0.10,,---,0.56,VWS V14.01,2013-09-30 03:02:00,
2013-09-29 20:05:00,46.7,45.1,29.62,SW,225,10.0,16.0,94,0.10,,---,0.57,VWS V14.01,2013-09-30 03:05:00,
2013-09-29 20:06:00,46.7,45.1,29.62,SW,225,10.0,16.0,94,0.10,,---,0.57,VWS V14.01,2013-09-30 03:06:00,
2013-09-29 20:07:00,46.7,45.1,29.62,SW,225,11.0,17.0,94,0.10,,---,0.57,VWS V14.01,2013-09-30 03:07:00,
2013-09-29 20:09:00,46.7,45.1,29.62,SSW,206,13.0,17.0,94,0.11,,---,0.58,VWS V14.01,2013-09-30 03:09:00,
2013-09-29 20:10:00,46.7,45.1,29.62,SW,221,10.0,17.0,94,0.11,,---,0.58,VWS V14.01,2013-09-30 03:10:00,
2013-09-29 20:12:00,46.8,45.2,29.62,SW,219,11.0,17.0,94,0.11,,---,0.58,VWS V14.01,2013-09-30 03:12:00,
2013-09-29 20:13:00,46.8,45.2,29.62,SSW,202,10.0,12.0,94,0.10,,---,0.58,VWS V14.01,2013-09-30 03:13:00,
2013-09-29 20:14:00,46.8,45.2,29.63,SW,225,12.0,16.0,94,0.10,,---,0.58,VWS V14.01,2013-09-30 03:14:00,
2013-09-29 20:15:00,46.8,45.2,29.63,SW,223,10.0,16.0,94,0.11,,---,0.59,VWS V14.01,2013-09-30 03:15:00,
2013-09-29 20:18:00,46.8,45.2,29.63,SSW,194,8.0,16.0,94,0.11,,---,0.59,VWS V14.01,2013-09-30 03:18:00,
2013-09-29 20:20:00,46.8,45.2,29.63,WSW,242,6.0,16.0,94,0.12,,---,0.60,VWS V14.01,2013-09-30 03:20:00,
2013-09-29 20:21:00,46.8,45.2,29.63,WSW,241,4.0,16.0,94,0.12,,---,0.60,VWS V14.01,2013-09-30 03:21:00,
2013-09-29 20:22:00,46.8,45.2,29.63,SSE,168,9.0,9.0,94,0.11,,---,0.60,VWS V14.01,2013-09-30 03:22:00,
2013-09-29 20:26:00,46.9,45.3,29.63,SSW,209,8.0,19.0,94,0.13,,---,0.62,VWS V14.01,2013-09-30 03:26:00,
2013-09-29 20:27:00,46.9,45.3,29.63,South,179,17.0,19.0,94,0.13,,---,0.62,VWS V14.01,2013-09-30 03:27:00,
2013-09-29 20:30:00,47.0,45.4,29.62,SW,215,12.0,19.0,94,0.14,,---,0.63,VWS V14.01,2013-09-30 03:30:00,
2013-09-29 20:32:00,47.0,45.4,29.62,SW,225,12.0,13.0,94,0.11,,---,0.63,VWS V14.01,2013-09-30 03:32:00,
2013-09-29 20:33:00,47.0,45.4,29.62,SW,221,11.0,22.0,94,0.11,,---,0.63,VWS V14.01,2013-09-30 03:33:00,
2013-09-29 20:37:00,47.0,45.4,29.62,SW,220,8.0,22.0,94,0.13,,---,0.65,VWS V14.01,2013-09-30 03:37:00,
2013-09-29 20:38:00,47.0,45.4,29.62,SSW,202,9.0,22.0,94,0.13,,---,0.65,VWS V14.01,2013-09-30 03:38:00,
2013-09-29 20:39:00,47.0,45.4,29.62,WSW,242,11.0,22.0,94,0.13,,---,0.65,VWS V14.01,2013-09-30 03:39:00,
2013-09-29 20:44:00,47.0,45.4,29.62,SW,232,10.0,17.0,94,0.13,,---,0.66,VWS V14.01,2013-09-30 03:44:00,
2013-09-29 20:45:00,47.0,45.4,29.62,WSW,243,12.0,17.0,94,0.14,,---,0.67,VWS V14.01,2013-09-30 03:45:00,
2013-09-29 20:49:00,47.1,45.5,29.62,SW,220,9.0,17.0,94,0.15,,---,0.68,VWS V14.01,2013-09-30 03:49:00,
2013-09-29 20:50:00,47.2,45.6,29.62,SSW,213,8.0,17.0,94,0.15,,---,0.68,VWS V14.01,2013-09-30 03:50:00,
2013-09-29 20:51:00,47.2,45.6,29.62,WSW,238,9.0,17.0,94,0.15,,---,0.68,VWS V14.01,2013-09-30 03:51:00,
2013-09-29 20:54:00,47.3,45.7,29.62,SW,224,9.0,15.0,94,0.14,,---,0.69,VWS V14.01,2013-09-30 03:54:00,
2013-09-29 20:55:00,47.3,45.7,29.62,SSW,197,17.0,19.0,94,0.14,,---,0.69,VWS V14.01,2013-09-30 03:55:00,
2013-09-29 20:56:00,47.3,45.7,29.62,SSW,203,11.0,19.0,94,0.15,,---,0.70,VWS V14.01,2013-09-30 03:56:00,
2013-09-29 20:57:00,47.3,45.7,29.62,SSW,209,8.0,19.0,94,0.15,,---,0.70,VWS V14.01,2013-09-30 03:57:00,
2013-09-29 20:59:00,47.4,45.8,29.62,SSW,194,7.0,19.0,94,0.16,,---,0.71,VWS V14.01,2013-09-30 03:59:00,
2013-09-29 21:01:00,47.4,45.8,29.61,South,191,12.0,24.0,94,0.17,,---,0.72,VWS V14.01,2013-09-30 04:01:00,
2013-09-29 21:02:00,47.4,45.8,29.61,South,179,4.0,24.0,94,0.17,,---,0.72,VWS V14.01,2013-09-30 04:02:00,
2013-09-29 21:04:00,47.4,45.8,29.61,SW,217,11.0,13.0,94,0.17,,---,0.73,VWS V14.01,2013-09-30 04:04:00,
2013-09-29 21:06:00,47.4,45.8,29.61,SSW,203,10.0,18.0,94,0.18,,---,0.74,VWS V14.01,2013-09-30 04:06:00,
2013-09-29 21:07:00,47.4,45.8,29.61,South,190,11.0,18.0,94,0.18,,---,0.74,VWS V14.01,2013-09-30 04:07:00,
2013-09-29 21:09:00,47.5,45.9,29.60,South,175,15.0,21.0,94,0.19,,---,0.75,VWS V14.01,2013-09-30 04:09:00,
2013-09-29 21:12:00,47.6,46.0,29.60,South,174,10.0,10.0,94,0.18,,---,0.76,VWS V14.01,2013-09-30 04:12:00,
2013-09-29 21:13:00,47.6,46.0,29.60,South,191,7.0,19.0,94,0.18,,---,0.76,VWS V14.01,2013-09-30 04:13:00,
2013-09-29 21:14:00,47.6,46.0,29.60,SSW,194,11.0,22.0,94,0.18,,---,0.76,VWS V14.01,2013-09-30 04:14:00,
2013-09-29 21:15:00,47.7,46.1,29.59,South,186,15.0,26.0,94,0.19,,---,0.77,VWS V14.01,2013-09-30 04:15:00,
2013-09-29 21:19:00,47.8,45.9,29.59,SSW,195,16.0,26.0,93,0.20,,---,0.78,VWS V14.01,2013-09-30 04:19:00,
2013-09-29 21:20:00,47.9,46.0,29.59,SW,217,15.0,26.0,93,0.20,,---,0.78,VWS V14.01,2013-09-30 04:20:00,
2013-09-29 21:21:00,47.9,46.0,29.59,SSW,199,10.0,26.0,93,0.21,,---,0.79,VWS V14.01,2013-09-30 04:21:00,
2013-09-29 21:24:00,48.1,46.2,29.59,South,183,15.0,29.0,93,0.20,,---,0.80,VWS V14.01,2013-09-30 04:24:00,
2013-09-29 21:26:00,48.2,46.3,29.59,South,181,22.0,29.0,93,0.20,,---,0.80,VWS V14.01,2013-09-30 04:26:00,
2013-09-29 21:28:00,48.2,46.0,29.59,SSW,194,13.0,29.0,92,0.21,,---,0.81,VWS V14.01,2013-09-30 04:28:00,
2013-09-29 21:29:00,48.3,46.1,29.59,South,188,9.0,29.0,92,0.21,,---,0.81,VWS V14.01,2013-09-30 04:29:00,
2013-09-29 21:30:00,48.3,46.1,29.59,SSW,196,9.0,29.0,92,0.21,,---,0.81,VWS V14.01,2013-09-30 04:30:00,
2013-09-29 21:32:00,48.3,46.4,29.59,South,176,16.0,20.0,93,0.19,,---,0.82,VWS V14.01,2013-09-30 04:32:00,
2013-09-29 21:33:00,48.3,46.4,29.58,South,188,12.0,20.0,93,0.19,,---,0.82,VWS V14.01,2013-09-30 04:33:00,
2013-09-29 21:34:00,48.3,46.1,29.58,SSW,198,17.0,28.0,92,0.19,,---,0.82,VWS V14.01,2013-09-30 04:34:00,
2013-09-29 21:36:00,48.4,46.2,29.58,South,190,21.0,29.0,92,0.20,,---,0.83,VWS V14.01,2013-09-30 04:36:00,
2013-09-29 21:38:00,48.6,46.4,29.57,SSW,201,23.0,29.0,92,0.20,,---,0.83,VWS V14.01,2013-09-30 04:38:00,
2013-09-29 21:39:00,48.6,46.4,29.56,SSE,163,26.0,29.0,92,0.21,,---,0.84,VWS V14.01,2013-09-30 04:39:00,
2013-09-29 21:41:00,48.6,46.4,29.55,South,172,15.0,29.0,92,0.21,,---,0.84,VWS V14.01,2013-09-30 04:41:00,
2013-09-29 21:44:00,48.8,46.3,29.55,SSW,197,11.0,29.0,91,0.19,,---,0.85,VWS V14.01,2013-09-30 04:44:00,
2013-09-29 21:45:00,48.8,46.6,29.55,SW,220,16.0,29.0,92,0.19,,---,0.85,VWS V14.01,2013-09-30 04:45:00,
2013-09-29 21:46:00,48.7,46.5,29.54,South,178,16.0,29.0,92,0.19,,---,0.85,VWS V14.01,2013-09-30 04:46:00,
2013-09-29 21:48:00,48.8,46.6,29.54,SSW,201,18.0,32.0,92,0.19,,---,0.85,VWS V14.01,2013-09-30 04:48:00,
2013-09-29 21:49:00,48.8,46.3,29.55,SW,223,12.0,32.0,91,0.20,,---,0.86,VWS V14.01,2013-09-30 04:49:00,
2013-09-29 21:50:00,48.8,46.3,29.55,South,177,19.0,32.0,91,0.20,,---,0.86,VWS V14.01,2013-09-30 04:50:00,
2013-09-29 21:52:00,48.8,46.6,29.55,SSW,202,26.0,32.0,92,0.20,,---,0.86,VWS V14.01,2013-09-30 04:52:00,
2013-09-29 21:54:00,49.0,46.5,29.55,SSW,209,9.0,26.0,91,0.18,,---,0.86,VWS V14.01,2013-09-30 04:54:00,
2013-09-29 21:55:00,49.0,46.5,29.55,SSE,161,17.0,26.0,91,0.18,,---,0.86,VWS V14.01,2013-09-30 04:55:00,
2013-09-29 21:56:00,49.0,46.5,29.55,SSW,198,9.0,26.0,91,0.19,,---,0.87,VWS V14.01,2013-09-30 04:56:00,
2013-09-29 21:57:00,49.0,46.5,29.55,South,179,16.0,26.0,91,0.19,,---,0.87,VWS V14.01,2013-09-30 04:57:00,
2013-09-29 21:58:00,49.0,46.5,29.55,SW,229,23.0,26.0,91,0.19,,---,0.87,VWS V14.01,2013-09-30 04:58:00,
2013-09-29 21:59:00,49.1,46.3,29.55,SW,216,17.0,27.0,90,0.19,,---,0.87,VWS V14.01,2013-09-30 04:59:00,
2013-09-29 22:02:00,49.2,46.7,29.55,SW,221,10.0,27.0,91,0.20,,---,0.88,VWS V14.01,2013-09-30 05:02:00,
2013-09-29 22:03:00,49.1,46.6,29.56,SSW,212,11.0,21.0,91,0.16,,---,0.88,VWS V14.01,2013-09-30 05:03:00,
2013-09-29 22:06:00,49.0,46.5,29.55,South,178,14.0,21.0,91,0.17,,---,0.89,VWS V14.01,2013-09-30 05:06:00,
2013-09-29 22:08:00,49.0,46.5,29.55,SSW,197,7.0,21.0,91,0.17,,---,0.89,VWS V14.01,2013-09-30 05:08:00,
2013-09-29 22:12:00,49.2,46.7,29.54,SW,214,24.0,24.0,91,0.14,,---,0.90,VWS V14.01,2013-09-30 05:12:00,
2013-09-29 22:13:00,49.4,46.9,29.55,SW,223,12.0,33.0,91,0.14,,---,0.90,VWS V14.01,2013-09-30 05:13:00,
2013-09-29 22:14:00,49.4,46.9,29.54,SSW,202,21.0,33.0,91,0.14,,---,0.90,VWS V14.01,2013-09-30 05:14:00,
2013-09-29 22:16:00,49.5,46.7,29.54,SSW,209,8.0,33.0,90,0.15,,---,0.91,VWS V14.01,2013-09-30 05:16:00,
2013-09-29 22:18:00,49.5,47.0,29.53,SSE,166,29.0,33.0,91,0.15,,---,0.91,VWS V14.01,2013-09-30 05:18:00,
2013-09-29 22:19:00,49.5,47.0,29.53,SW,226,10.0,33.0,91,0.16,,---,0.92,VWS V14.01,2013-09-30 05:19:00,
2013-09-29 22:21:00,49.6,46.8,29.54,SW,232,11.0,33.0,90,0.16,,---,0.92,VWS V14.01,2013-09-30 05:21:00,
2013-09-29 22:23:00,49.6,46.8,29.54,SW,215,23.0,27.0,90,0.13,,---,0.92,VWS V14.01,2013-09-30 05:23:00,
2013-09-29 22:24:00,49.7,46.9,29.54,WSW,238,18.0,28.0,90,0.13,,---,0.92,VWS V14.01,2013-09-30 05:24:00,
2013-09-29 22:25:00,49.8,47.0,29.54,South,181,23.0,35.0,90,0.14,,---,0.93,VWS V14.01,2013-09-30 05:25:00,
2013-09-29 22:30:00,49.8,47.0,29.54,SE,138,26.0,35.0,90,0.15,,---,0.94,VWS V14.01,2013-09-30 05:30:00,
2013-09-29 22:31:00,49.8,47.3,29.53,South,191,26.0,35.0,91,0.15,,---,0.94,VWS V14.01,2013-09-30 05:31:00,
2013-09-29 22:36:00,49.9,47.1,29.53,South,188,10.0,27.0,90,0.13,,---,0.95,VWS V14.01,2013-09-30 05:36:00,
2013-09-29 22:37:00,49.9,47.4,29.53,SSW,209,10.0,27.0,91,0.13,,---,0.95,VWS V14.01,2013-09-30 05:37:00,
2013-09-29 22:40:00,49.8,47.3,29.53,South,189,20.0,27.0,91,0.14,,---,0.96,VWS V14.01,2013-09-30 05:40:00,
2013-09-29 22:42:00,49.8,47.3,29.52,SSW,205,25.0,25.0,91,0.13,,---,0.97,VWS V14.01,2013-09-30 05:42:00,
2013-09-29 22:43:00,49.8,47.3,29.53,SSW,199,21.0,25.0,91,0.13,,---,0.97,VWS V14.01,2013-09-30 05:43:00,
2013-09-29 22:44:00,49.8,47.3,29.53,SSW,205,12.0,25.0,91,0.13,,---,0.97,VWS V14.01,2013-09-30 05:44:00,
2013-09-29 22:46:00,49.9,47.4,29.53,SW,218,14.0,34.0,91,0.14,,---,0.98,VWS V14.01,2013-09-30 05:46:00,
2013-09-29 22:47:00,49.9,47.4,29.53,SW,222,17.0,34.0,91,0.14,,---,0.98,VWS V14.01,2013-09-30 05:47:00,
2013-09-29 22:48:00,49.9,47.4,29.52,SSE,153,20.0,34.0,91,0.15,,---,0.99,VWS V14.01,2013-09-30 05:48:00,
2013-09-29 22:49:00,49.9,47.4,29.53,South,182,11.0,34.0,91,0.15,,---,0.99,VWS V14.01,2013-09-30 05:49:00,
2013-09-29 22:52:00,49.9,47.4,29.53,SW,221,14.0,29.0,91,0.14,,---,1.00,VWS V14.01,2013-09-30 05:52:00,
2013-09-29 22:54:00,49.8,47.3,29.53,SSW,206,9.0,29.0,91,0.14,,---,1.00,VWS V14.01,2013-09-30 05:54:00,
2013-09-29 22:55:00,49.8,47.3,29.53,SSW,195,22.0,29.0,91,0.14,,---,1.00,VWS V14.01,2013-09-30 05:55:00,
2013-09-29 22:59:00,49.8,47.6,29.54,SW,219,10.0,33.0,92,0.16,,---,1.02,VWS V14.01,2013-09-30 05:59:00,
2013-09-29 23:00:00,49.7,47.5,29.53,SSW,206,23.0,33.0,92,0.16,,---,1.02,VWS V14.01,2013-09-30 06:00:00,
2013-09-29 23:02:00,49.7,47.5,29.53,South,169,14.0,33.0,92,0.17,,---,1.03,VWS V14.01,2013-09-30 06:02:00,
2013-09-29 23:03:00,49.7,47.5,29.53,South,178,16.0,26.0,92,0.16,,---,1.04,VWS V14.01,2013-09-30 06:03:00,
2013-09-29 23:05:00,49.7,47.5,29.53,SW,223,13.0,26.0,92,0.17,,---,1.05,VWS V14.01,2013-09-30 06:05:00,
2013-09-29 23:07:00,49.7,47.5,29.53,SW,219,22.0,26.0,92,0.17,,---,1.05,VWS V14.01,2013-09-30 06:07:00,
2013-09-29 23:10:00,49.6,47.4,29.53,SSW,198,17.0,27.0,92,0.18,,---,1.06,VWS V14.01,2013-09-30 06:10:00,
2013-09-29 23:12:00,49.7,47.5,29.53,SW,226,24.0,33.0,92,0.17,,---,1.07,VWS V14.01,2013-09-30 06:12:00,
2013-09-29 23:13:00,49.9,47.4,29.52,SW,225,11.0,33.0,91,0.17,,---,1.07,VWS V14.01,2013-09-30 06:13:00,
2013-09-29 23:14:00,49.9,47.4,29.52,SW,218,21.0,33.0,91,0.17,,---,1.07,VWS V14.01,2013-09-30 06:14:00,
2013-09-29 23:16:00,50.0,47.8,29.53,SW,223,24.0,33.0,92,0.18,,---,1.08,VWS V14.01,2013-09-30 06:16:00,
2013-09-29 23:19:00,49.8,47.6,29.53,SW,217,14.0,33.0,92,0.18,,---,1.08,VWS V14.01,2013-09-30 06:19:00,
2013-09-29 23:20:00,49.8,47.6,29.53,SW,223,14.0,33.0,92,0.19,,---,1.09,VWS V14.01,2013-09-30 06:20:00,
2013-09-29 23:21:00,49.7,47.5,29.53,SSW,201,12.0,33.0,92,0.19,,---,1.09,VWS V14.01,2013-09-30 06:21:00,
2013-09-29 23:22:00,49.7,47.5,29.53,WSW,250,26.0,33.0,92,0.20,,---,1.10,VWS V14.01,2013-09-30 06:22:00,
2013-09-29 23:23:00,49.7,47.5,29.53,South,185,11.0,26.0,92,0.18,,---,1.10,VWS V14.01,2013-09-30 06:23:00,
2013-09-29 23:24:00,49.7,47.8,29.53,SSW,208,17.0,26.0,93,0.18,,---,1.10,VWS V14.01,2013-09-30 06:24:00,
2013-09-29 23:25:00,49.7,47.8,29.53,SW,226,28.0,28.0,93,0.19,,---,1.11,VWS V14.01,2013-09-30 06:25:00,
2013-09-29 23:27:00,49.7,47.8,29.53,SW,223,19.0,28.0,93,0.20,,---,1.12,VWS V14.01,2013-09-30 06:27:00,
2013-09-29 23:28:00,49.7,47.8,29.53,SW,214,14.0,28.0,93,0.20,,---,1.12,VWS V14.01,2013-09-30 06:28:00,
2013-09-29 23:30:00,49.7,47.8,29.53,SSW,207,16.0,28.0,93,0.20,,---,1.12,VWS V14.01,2013-09-30 06:30:00,
2013-09-29 23:32:00,49.7,47.8,29.53,SW,217,12.0,28.0,93,0.21,,---,1.13,VWS V14.01,2013-09-30 06:32:00,
2013-09-29 23:35:00,49.6,47.7,29.54,SW,226,15.0,24.0,93,0.20,,---,1.14,VWS V14.01,2013-09-30 06:35:00,
2013-09-29 23:36:00,49.6,47.7,29.54,South,189,10.0,24.0,93,0.21,,---,1.15,VWS V14.01,2013-09-30 06:36:00,
2013-09-29 23:38:00,49.6,47.7,29.55,South,188,11.0,24.0,93,0.22,,---,1.16,VWS V14.01,2013-09-30 06:38:00,
2013-09-29 23:42:00,49.5,47.8,29.55,SW,216,11.0,24.0,94,0.24,,---,1.18,VWS V14.01,2013-09-30 06:42:00,
2013-09-29 23:43:00,49.5,47.8,29.55,WSW,254,8.0,16.0,94,0.21,,---,1.18,VWS V14.01,2013-09-30 06:43:00,
2013-09-29 23:44:00,49.5,47.8,29.55,SW,235,12.0,21.0,94,0.22,,---,1.19,VWS V14.01,2013-09-30 06:44:00,
2013-09-29 23:47:00,49.5,47.8,29.55,WSW,240,9.0,21.0,94,0.23,,---,1.20,VWS V14.01,2013-09-30 06:47:00,
2013-09-29 23:48:00,49.5,47.8,29.55,WSW,244,12.0,21.0,94,0.23,,---,1.20,VWS V14.01,2013-09-30 06:48:00,
2013-09-29 23:49:00,49.5,47.8,29.55,WSW,250,13.0,21.0,94,0.23,,---,1.20,VWS V14.01,2013-09-30 06:49:00,
2013-09-29 23:50:00,49.5,47.8,29.56,WSW,244,10.0,21.0,94,0.24,,---,1.21,VWS V14.01,2013-09-30 06:50:00,
2013-09-29 23:53:00,49.4,47.8,29.58,WNW,287,12.0,24.0,94,0.23,,---,1.22,VWS V14.01,2013-09-30 06:53:00,
2013-09-29 23:54:00,49.5,47.8,29.58,West,268,19.0,24.0,94,0.23,,---,1.22,VWS V14.01,2013-09-30 06:54:00,
2013-09-29 23:55:00,49.5,47.8,29.58,WNW,296,22.0,24.0,94,0.23,,---,1.22,VWS V14.01,2013-09-30 06:55:00,
2013-09-29 23:56:00,49.4,47.8,29.59,WNW,292,18.0,24.0,94,0.27,,---,1.26,VWS V14.01,2013-09-30 06:56:00,
2013-09-29 23:58:00,49.5,47.8,29.58,SW,227,9.0,24.0,94,0.29,,---,1.28,VWS V14.01,2013-09-30 06:58:00,
2013-09-29 23:59:00,49.5,47.8,29.58,SW,233,12.0,24.0,94,0.29,,---,1.28,VWS V14.01,2013-09-30 06:59:00,